KLM806 EHAM-RCTP
Flight info
| Callsign | KLM806 |
|---|---|
| Flight time | 12h 18m |
| Altitude | 33000 |
| Route | ARNEM3N ARNEM L620 OMELO DCT PEPIK DCT BUDOP DCT LUGEB/N0479F350 DCT UDROS UM859 KARDE UN644 ROLIN N644 ODILI DCT BARAD M747 LUSAL N199 RASAM L88 METKA B476 DARVA/K0913F350 T898 NUHEF/K0900F370 T898 OGOLI N193 SR L163 TISIB L141 KAMUD/K0887S1130 W186 SADAN Y1 LUSMA/K0896S1190 Y1 OMBON W245 OVRAL B330 KWE W181 DUDIT A599 POU B330 TAMOT/N0483F390 B330 BIGEX DCT DALOL V631 ENVAR M750 EXTRA/N0477F290 M750 TONGA TONGA1A |
| Aircraft | B772/H-SDE2E3FGHIJ5LORVWXY/LB1D1 |
Departure
| Time | 2026-04-07 18:35 |
|---|---|
| Airport | Amsterdam Airport Schiphol (EHAM) |
Arrival
| Time | 2026-04-08 06:53 |
|---|---|
| Airport | Taiwan Taoyuan International Airport (RCTP) |
| Time | Latitude | Longitude | Altitude | Speed | Heading |
|---|---|---|---|---|---|
| 2026-04-07 17:07 | 52.31405 | 4.77041 | 3 ft | 0 kts | 303° |
| 2026-04-07 18:04 | 52.31404 | 4.77043 | -8 ft | 2 kts | 303° |
| 2026-04-07 18:04 | 52.31390 | 4.77078 | 11 ft | 4 kts | 304° |
| 2026-04-07 18:04 | 52.31375 | 4.77114 | 6 ft | 4 kts | 309° |
| 2026-04-07 18:05 | 52.31356 | 4.77144 | 5 ft | 4 kts | 338° |
| 2026-04-07 18:05 | 52.31339 | 4.77145 | 3 ft | 3 kts | 33° |
| 2026-04-07 18:05 | 52.31317 | 4.77121 | 7 ft | 4 kts | 33° |
| 2026-04-07 18:05 | 52.31302 | 4.77105 | 5 ft | 4 kts | 33° |
| 2026-04-07 18:06 | 52.31272 | 4.77072 | 5 ft | 4 kts | 33° |
| 2026-04-07 18:06 | 52.31269 | 4.77069 | 5 ft | 4 kts | 34° |
| 2026-04-07 18:06 | 52.31288 | 4.77100 | 5 ft | 4 kts | 57° |
| 2026-04-07 18:06 | 52.31293 | 4.77124 | 5 ft | 4 kts | 70° |
| 2026-04-07 18:07 | 52.31296 | 4.77162 | 3 ft | 4 kts | 87° |
| 2026-04-07 18:07 | 52.31295 | 4.77206 | 3 ft | 4 kts | 93° |
| 2026-04-07 18:07 | 52.31293 | 4.77250 | 3 ft | 4 kts | 94° |
| 2026-04-07 18:07 | 52.31293 | 4.77265 | 3 ft | 4 kts | 94° |
| 2026-04-07 18:08 | 52.31292 | 4.77290 | 3 ft | 4 kts | 94° |
| 2026-04-07 18:08 | 52.31291 | 4.77304 | 3 ft | 0 kts | 94° |
| 2026-04-07 18:10 | 52.31290 | 4.77331 | 3 ft | 7 kts | 94° |
| 2026-04-07 18:10 | 52.31286 | 4.77427 | 3 ft | 9 kts | 94° |
| 2026-04-07 18:11 | 52.31282 | 4.77525 | 2 ft | 9 kts | 94° |
| 2026-04-07 18:11 | 52.31296 | 4.77615 | 3 ft | 9 kts | 51° |
| 2026-04-07 18:11 | 52.31355 | 4.77651 | 3 ft | 10 kts | 7° |
| 2026-04-07 18:11 | 52.31428 | 4.77646 | 3 ft | 11 kts | 346° |
| 2026-04-07 18:12 | 52.31497 | 4.77581 | 3 ft | 12 kts | 319° |
| 2026-04-07 18:12 | 52.31554 | 4.77478 | 3 ft | 13 kts | 301° |
| 2026-04-07 18:12 | 52.31573 | 4.77323 | 3 ft | 15 kts | 270° |
| 2026-04-07 18:12 | 52.31570 | 4.77141 | 3 ft | 16 kts | 267° |
| 2026-04-07 18:13 | 52.31564 | 4.76942 | 3 ft | 17 kts | 264° |
| 2026-04-07 18:13 | 52.31558 | 4.76781 | 3 ft | 14 kts | 266° |
| 2026-04-07 18:13 | 52.31552 | 4.76626 | 3 ft | 14 kts | 266° |
| 2026-04-07 18:13 | 52.31546 | 4.76470 | 3 ft | 14 kts | 266° |
| 2026-04-07 18:14 | 52.31542 | 4.76305 | 3 ft | 15 kts | 267° |
| 2026-04-07 18:14 | 52.31536 | 4.76136 | 3 ft | 15 kts | 266° |
| 2026-04-07 18:14 | 52.31529 | 4.75966 | 3 ft | 15 kts | 267° |
| 2026-04-07 18:14 | 52.31524 | 4.75798 | 3 ft | 15 kts | 267° |
| 2026-04-07 18:15 | 52.31519 | 4.75651 | 3 ft | 13 kts | 266° |
| 2026-04-07 18:15 | 52.31514 | 4.75506 | 3 ft | 13 kts | 266° |
| 2026-04-07 18:15 | 52.31509 | 4.75362 | 3 ft | 13 kts | 266° |
| 2026-04-07 18:15 | 52.31503 | 4.75188 | 3 ft | 19 kts | 267° |
| 2026-04-07 18:16 | 52.31496 | 4.74972 | 3 ft | 19 kts | 266° |
| 2026-04-07 18:16 | 52.31489 | 4.74757 | 3 ft | 19 kts | 267° |
| 2026-04-07 18:16 | 52.31482 | 4.74541 | 3 ft | 19 kts | 267° |
| 2026-04-07 18:16 | 52.31477 | 4.74379 | 3 ft | 11 kts | 268° |
| 2026-04-07 18:17 | 52.31527 | 4.74296 | 3 ft | 11 kts | 348° |
| 2026-04-07 18:17 | 52.31608 | 4.74303 | 3 ft | 13 kts | 4° |
| 2026-04-07 18:17 | 52.31707 | 4.74314 | 3 ft | 16 kts | 3° |
| 2026-04-07 18:17 | 52.31824 | 4.74325 | 3 ft | 18 kts | 3° |
| 2026-04-07 18:18 | 52.31939 | 4.74335 | 3 ft | 15 kts | 2° |
| 2026-04-07 18:18 | 52.32023 | 4.74273 | 3 ft | 15 kts | 293° |
| 2026-04-07 18:18 | 52.32036 | 4.74087 | 3 ft | 18 kts | 273° |
| 2026-04-07 18:18 | 52.32043 | 4.73879 | 3 ft | 18 kts | 272° |
| 2026-04-07 18:19 | 52.32049 | 4.73679 | 4 ft | 16 kts | 273° |
| 2026-04-07 18:19 | 52.32056 | 4.73507 | 3 ft | 15 kts | 275° |
| 2026-04-07 18:19 | 52.32093 | 4.73350 | 4 ft | 16 kts | 311° |
| 2026-04-07 18:19 | 52.32191 | 4.73211 | 3 ft | 21 kts | 320° |
| 2026-04-07 18:20 | 52.32302 | 4.73058 | 3 ft | 21 kts | 319° |
| 2026-04-07 18:20 | 52.32412 | 4.72905 | 3 ft | 21 kts | 321° |
| 2026-04-07 18:20 | 52.32522 | 4.72750 | 3 ft | 21 kts | 317° |
| 2026-04-07 18:20 | 52.32631 | 4.72594 | 3 ft | 21 kts | 318° |
| 2026-04-07 18:21 | 52.32731 | 4.72423 | 3 ft | 21 kts | 311° |
| 2026-04-07 18:21 | 52.32827 | 4.72246 | 3 ft | 21 kts | 311° |
| 2026-04-07 18:21 | 52.32923 | 4.72068 | 3 ft | 21 kts | 311° |
| 2026-04-07 18:21 | 52.33019 | 4.71889 | 3 ft | 21 kts | 310° |
| 2026-04-07 18:22 | 52.33101 | 4.71739 | 3 ft | 11 kts | 313° |
| 2026-04-07 18:22 | 52.33143 | 4.71636 | 3 ft | 10 kts | 288° |
| 2026-04-07 18:22 | 52.33142 | 4.71546 | 3 ft | 7 kts | 254° |
| 2026-04-07 18:22 | 52.33118 | 4.71485 | 3 ft | 6 kts | 226° |
| 2026-04-07 18:23 | 52.33085 | 4.71434 | 3 ft | 7 kts | 223° |
| 2026-04-07 18:23 | 52.33053 | 4.71386 | 3 ft | 3 kts | 220° |
| 2026-04-07 18:23 | 52.33038 | 4.71366 | 3 ft | 3 kts | 221° |
| 2026-04-07 18:23 | 52.33034 | 4.71360 | 3 ft | 0 kts | 221° |
| 2026-04-07 18:24 | 52.33027 | 4.71349 | 3 ft | 1 kts | 222° |
| 2026-04-07 18:24 | 52.33024 | 4.71345 | 3 ft | 0 kts | 222° |
| 2026-04-07 18:25 | 52.33023 | 4.71343 | 3 ft | 0 kts | 222° |
| 2026-04-07 18:25 | 52.33020 | 4.71339 | 3 ft | 4 kts | 222° |
| 2026-04-07 18:25 | 52.32990 | 4.71295 | 3 ft | 6 kts | 221° |
| 2026-04-07 18:25 | 52.32977 | 4.71277 | 3 ft | 0 kts | 221° |
| 2026-04-07 18:27 | 52.32973 | 4.71270 | 3 ft | 2 kts | 221° |
| 2026-04-07 18:27 | 52.32970 | 4.71266 | 3 ft | 0 kts | 222° |
| 2026-04-07 18:27 | 52.32967 | 4.71263 | 3 ft | 0 kts | 222° |
| 2026-04-07 18:28 | 52.32953 | 4.71242 | 3 ft | 6 kts | 221° |
| 2026-04-07 18:28 | 52.32942 | 4.71226 | 3 ft | 0 kts | 222° |
| 2026-04-07 18:29 | 52.32919 | 4.71192 | 3 ft | 6 kts | 221° |
| 2026-04-07 18:29 | 52.32903 | 4.71170 | 3 ft | 0 kts | 221° |
| 2026-04-07 18:31 | 52.32895 | 4.71158 | 3 ft | 6 kts | 224° |
| 2026-04-07 18:32 | 52.32868 | 4.71082 | 3 ft | 8 kts | 254° |
| 2026-04-07 18:32 | 52.32863 | 4.70988 | 2 ft | 8 kts | 272° |
| 2026-04-07 18:32 | 52.32889 | 4.70909 | 2 ft | 9 kts | 329° |
| 2026-04-07 18:32 | 52.32931 | 4.70899 | 2 ft | 0 kts | 1° |
| 2026-04-07 18:34 | 52.33049 | 4.70907 | 1 ft | 45 kts | 3° |
| 2026-04-07 18:34 | 52.33605 | 4.70960 | 4 ft | 113 kts | 4° |
| 2026-04-07 18:34 | 52.34598 | 4.71059 | 28 ft | 167 kts | 5° |
| 2026-04-07 18:35 | 52.35817 | 4.71132 | 418 ft | 184 kts | 4° |
| 2026-04-07 18:35 | 52.37147 | 4.71137 | 1017 ft | 195 kts | 4° |
| 2026-04-07 18:35 | 52.38507 | 4.71085 | 1803 ft | 198 kts | 2° |
| 2026-04-07 18:35 | 52.39951 | 4.71059 | 2088 ft | 216 kts | 6° |
| 2026-04-07 18:36 | 52.41527 | 4.71247 | 2118 ft | 235 kts | 12° |
| 2026-04-07 18:36 | 52.43042 | 4.72228 | 2191 ft | 238 kts | 39° |
| 2026-04-07 18:36 | 52.44434 | 4.73828 | 2530 ft | 252 kts | 36° |
| 2026-04-07 18:36 | 52.45965 | 4.75329 | 3043 ft | 261 kts | 33° |
| 2026-04-07 18:37 | 52.47428 | 4.77058 | 3527 ft | 259 kts | 53° |
| 2026-04-07 18:37 | 52.48122 | 4.79690 | 4045 ft | 256 kts | 85° |
| 2026-04-07 18:37 | 52.48247 | 4.82593 | 4512 ft | 260 kts | 86° |
| 2026-04-07 18:37 | 52.48414 | 4.85583 | 5145 ft | 261 kts | 85° |
| 2026-04-07 18:38 | 52.48573 | 4.88573 | 5714 ft | 264 kts | 89° |
| 2026-04-07 18:38 | 52.48203 | 4.91561 | 6009 ft | 272 kts | 122° |
| 2026-04-07 18:38 | 52.46884 | 4.93743 | 6539 ft | 271 kts | 145° |
| 2026-04-07 18:38 | 52.45470 | 4.95753 | 6843 ft | 278 kts | 125° |
| 2026-04-07 18:39 | 52.44715 | 4.98664 | 7348 ft | 280 kts | 98° |
| 2026-04-07 18:39 | 52.44545 | 5.01839 | 7820 ft | 282 kts | 93° |
| 2026-04-07 18:39 | 52.44424 | 5.05077 | 8324 ft | 286 kts | 92° |
| 2026-04-07 18:39 | 52.44299 | 5.08340 | 8864 ft | 288 kts | 92° |
| 2026-04-07 18:40 | 52.44101 | 5.11551 | 9316 ft | 290 kts | 104° |
| 2026-04-07 18:40 | 52.43215 | 5.14545 | 9623 ft | 295 kts | 123° |
| 2026-04-07 18:40 | 52.42052 | 5.17380 | 9991 ft | 302 kts | 122° |
| 2026-04-07 18:40 | 52.40917 | 5.20286 | 10536 ft | 303 kts | 121° |
| 2026-04-07 18:41 | 52.39789 | 5.23277 | 10761 ft | 317 kts | 120° |
| 2026-04-07 18:41 | 52.38626 | 5.26440 | 10914 ft | 333 kts | 120° |
| 2026-04-07 18:41 | 52.37406 | 5.29848 | 11042 ft | 351 kts | 117° |
| 2026-04-07 18:41 | 52.36368 | 5.33518 | 11182 ft | 369 kts | 111° |
| 2026-04-07 18:42 | 52.35428 | 5.37558 | 11553 ft | 381 kts | 109° |
| 2026-04-07 18:42 | 52.34595 | 5.41346 | 12070 ft | 387 kts | 108° |
| 2026-04-07 18:42 | 52.33673 | 5.45548 | 12842 ft | 388 kts | 108° |
| 2026-04-07 18:42 | 52.32756 | 5.49666 | 13539 ft | 392 kts | 108° |
| 2026-04-07 18:43 | 52.31794 | 5.53914 | 14217 ft | 396 kts | 109° |
| 2026-04-07 18:43 | 52.30817 | 5.58169 | 14804 ft | 400 kts | 109° |
| 2026-04-07 18:43 | 52.29828 | 5.62425 | 15379 ft | 404 kts | 109° |
| 2026-04-07 18:43 | 52.28821 | 5.66732 | 15912 ft | 408 kts | 110° |
| 2026-04-07 18:44 | 52.27802 | 5.71069 | 16485 ft | 411 kts | 110° |
| 2026-04-07 18:44 | 52.26768 | 5.75451 | 17032 ft | 415 kts | 110° |
| 2026-04-07 18:44 | 52.25740 | 5.79804 | 17560 ft | 419 kts | 110° |
| 2026-04-07 18:44 | 52.24686 | 5.84256 | 18059 ft | 423 kts | 110° |
| 2026-04-07 18:45 | 52.23621 | 5.88747 | 18595 ft | 426 kts | 111° |
| 2026-04-07 18:45 | 52.22545 | 5.93275 | 19025 ft | 430 kts | 110° |
| 2026-04-07 18:45 | 52.21457 | 5.97843 | 19380 ft | 436 kts | 110° |
| 2026-04-07 18:45 | 52.20351 | 6.02478 | 19797 ft | 439 kts | 110° |
| 2026-04-07 18:46 | 52.19243 | 6.07116 | 20240 ft | 442 kts | 110° |
| 2026-04-07 18:46 | 52.18121 | 6.11797 | 20682 ft | 444 kts | 111° |
| 2026-04-07 18:46 | 52.16974 | 6.16572 | 21081 ft | 448 kts | 111° |
| 2026-04-07 18:46 | 52.15849 | 6.21246 | 21477 ft | 451 kts | 111° |
| 2026-04-07 18:47 | 52.14700 | 6.26015 | 21866 ft | 455 kts | 111° |
| 2026-04-07 18:47 | 52.13536 | 6.30832 | 22257 ft | 458 kts | 111° |
| 2026-04-07 18:47 | 52.12365 | 6.35670 | 22668 ft | 461 kts | 111° |
| 2026-04-07 18:47 | 52.11182 | 6.40545 | 23066 ft | 464 kts | 111° |
| 2026-04-07 18:48 | 52.09990 | 6.45442 | 23394 ft | 468 kts | 111° |
| 2026-04-07 18:48 | 52.08787 | 6.50378 | 23775 ft | 472 kts | 111° |
| 2026-04-07 18:48 | 52.07572 | 6.55351 | 24111 ft | 475 kts | 111° |
| 2026-04-07 18:48 | 52.06345 | 6.60362 | 24456 ft | 477 kts | 111° |
| 2026-04-07 18:49 | 52.05119 | 6.65361 | 24824 ft | 478 kts | 111° |
| 2026-04-07 18:49 | 52.03884 | 6.70381 | 25177 ft | 480 kts | 111° |
| 2026-04-07 18:49 | 52.02652 | 6.75432 | 25507 ft | 482 kts | 110° |
| 2026-04-07 18:49 | 52.01631 | 6.80609 | 25814 ft | 483 kts | 104° |
| 2026-04-07 18:50 | 52.01095 | 6.84122 | 26020 ft | 485 kts | 103° |
| 2026-04-07 18:50 | 52.00296 | 6.89462 | 26343 ft | 487 kts | 103° |
| 2026-04-07 18:50 | 51.99475 | 6.94805 | 26655 ft | 489 kts | 103° |
| 2026-04-07 18:50 | 51.98627 | 7.00152 | 26971 ft | 491 kts | 103° |
| 2026-04-07 18:51 | 51.97760 | 7.05528 | 27276 ft | 493 kts | 104° |
| 2026-04-07 18:51 | 51.96884 | 7.10912 | 27579 ft | 496 kts | 104° |
| 2026-04-07 18:51 | 51.95948 | 7.16320 | 27872 ft | 498 kts | 105° |
| 2026-04-07 18:51 | 51.94953 | 7.21690 | 28165 ft | 500 kts | 106° |
| 2026-04-07 18:52 | 51.93912 | 7.27178 | 28456 ft | 502 kts | 106° |
| 2026-04-07 18:52 | 51.92888 | 7.32583 | 28738 ft | 504 kts | 106° |
| 2026-04-07 18:52 | 51.91874 | 7.37949 | 28981 ft | 506 kts | 106° |
| 2026-04-07 18:52 | 51.90848 | 7.43413 | 29210 ft | 509 kts | 106° |
| 2026-04-07 18:53 | 51.89820 | 7.48908 | 29445 ft | 510 kts | 106° |
| 2026-04-07 18:53 | 51.88789 | 7.54418 | 29683 ft | 512 kts | 106° |
| 2026-04-07 18:53 | 51.87752 | 7.59940 | 29913 ft | 514 kts | 106° |
| 2026-04-07 18:53 | 51.86694 | 7.65554 | 30126 ft | 515 kts | 106° |
| 2026-04-07 18:54 | 51.85671 | 7.71026 | 30369 ft | 516 kts | 105° |
| 2026-04-07 18:54 | 51.84803 | 7.76649 | 30602 ft | 515 kts | 102° |
| 2026-04-07 18:54 | 51.84006 | 7.82295 | 30878 ft | 515 kts | 101° |
| 2026-04-07 18:54 | 51.83213 | 7.87939 | 31128 ft | 514 kts | 101° |
| 2026-04-07 18:55 | 51.82418 | 7.93568 | 31390 ft | 514 kts | 101° |
| 2026-04-07 18:55 | 51.81616 | 7.99177 | 31648 ft | 513 kts | 102° |
| 2026-04-07 18:55 | 51.80802 | 8.04793 | 31918 ft | 512 kts | 102° |
| 2026-04-07 18:55 | 51.79982 | 8.10409 | 32187 ft | 512 kts | 102° |
| 2026-04-07 18:56 | 51.79166 | 8.15962 | 32459 ft | 511 kts | 102° |
| 2026-04-07 18:56 | 51.78339 | 8.21585 | 32701 ft | 511 kts | 102° |
| 2026-04-07 18:56 | 51.77520 | 8.27150 | 32962 ft | 510 kts | 102° |
| 2026-04-07 18:56 | 51.76695 | 8.32719 | 33191 ft | 511 kts | 102° |
| 2026-04-07 18:57 | 51.75109 | 8.43958 | 33285 ft | 515 kts | 101° |
| 2026-04-07 18:57 | 51.73579 | 8.55217 | 33598 ft | 513 kts | 101° |
| 2026-04-07 18:58 | 51.72812 | 8.60823 | 33956 ft | 510 kts | 101° |
| 2026-04-07 18:58 | 51.72042 | 8.66393 | 34307 ft | 507 kts | 101° |
| 2026-04-07 18:58 | 51.71267 | 8.71943 | 34439 ft | 508 kts | 101° |
| 2026-04-07 18:58 | 51.70487 | 8.77504 | 34431 ft | 509 kts | 101° |
| 2026-04-07 18:59 | 51.69700 | 8.83085 | 34223 ft | 509 kts | 101° |
| 2026-04-07 18:59 | 51.68926 | 8.88549 | 33942 ft | 505 kts | 101° |
| 2026-04-07 18:59 | 51.68134 | 8.94112 | 33680 ft | 502 kts | 101° |
| 2026-04-07 18:59 | 51.67355 | 8.99580 | 33429 ft | 499 kts | 101° |
| 2026-04-07 19:00 | 51.65813 | 9.10352 | 33360 ft | 508 kts | 101° |
| 2026-04-07 19:00 | 51.64228 | 9.21381 | 33362 ft | 514 kts | 101° |
| 2026-04-07 19:01 | 51.62610 | 9.32510 | 33349 ft | 515 kts | 101° |
| 2026-04-07 19:02 | 51.60145 | 9.49312 | 33349 ft | 514 kts | 101° |
| 2026-04-07 19:02 | 51.58496 | 9.60461 | 33346 ft | 513 kts | 101° |
| 2026-04-07 19:03 | 51.56832 | 9.71627 | 33358 ft | 513 kts | 101° |
| 2026-04-07 19:03 | 51.55161 | 9.82767 | 33344 ft | 512 kts | 101° |
| 2026-04-07 19:04 | 51.53482 | 9.93878 | 33349 ft | 511 kts | 101° |
| 2026-04-07 19:04 | 51.51798 | 10.04950 | 33350 ft | 511 kts | 101° |
| 2026-04-07 19:05 | 51.50103 | 10.16026 | 33357 ft | 511 kts | 101° |
| 2026-04-07 19:05 | 51.48395 | 10.27091 | 33341 ft | 511 kts | 101° |
| 2026-04-07 19:06 | 51.46678 | 10.38161 | 33346 ft | 511 kts | 101° |
| 2026-04-07 19:06 | 51.44954 | 10.49220 | 33346 ft | 512 kts | 101° |
| 2026-04-07 19:07 | 51.43198 | 10.60284 | 33363 ft | 512 kts | 101° |
| 2026-04-07 19:07 | 51.41426 | 10.71343 | 33355 ft | 513 kts | 101° |
| 2026-04-07 19:08 | 51.39654 | 10.82406 | 33332 ft | 513 kts | 101° |
| 2026-04-07 19:08 | 51.37874 | 10.93476 | 33354 ft | 513 kts | 101° |
| 2026-04-07 19:09 | 51.36085 | 11.04534 | 33343 ft | 513 kts | 101° |
| 2026-04-07 19:09 | 51.34284 | 11.15586 | 33351 ft | 514 kts | 100° |
| 2026-04-07 19:10 | 51.32469 | 11.26649 | 33354 ft | 514 kts | 101° |
| 2026-04-07 19:10 | 51.30659 | 11.37611 | 33349 ft | 514 kts | 101° |
| 2026-04-07 19:11 | 51.28815 | 11.48706 | 33350 ft | 513 kts | 101° |
| 2026-04-07 19:11 | 51.26983 | 11.59658 | 33364 ft | 514 kts | 100° |
| 2026-04-07 19:12 | 51.25120 | 11.70739 | 33356 ft | 514 kts | 100° |
| 2026-04-07 19:12 | 51.23267 | 11.81673 | 33355 ft | 514 kts | 101° |
| 2026-04-07 19:13 | 51.21394 | 11.92677 | 33350 ft | 514 kts | 101° |
| 2026-04-07 19:13 | 51.19513 | 12.03660 | 33355 ft | 514 kts | 100° |
| 2026-04-07 19:14 | 51.17618 | 12.14641 | 33341 ft | 513 kts | 100° |
| 2026-04-07 19:14 | 51.15717 | 12.25580 | 33351 ft | 512 kts | 101° |
| 2026-04-07 19:15 | 51.13805 | 12.36515 | 33350 ft | 512 kts | 101° |
| 2026-04-07 19:15 | 51.11884 | 12.47438 | 33359 ft | 512 kts | 101° |
| 2026-04-07 19:16 | 51.09956 | 12.58334 | 33345 ft | 512 kts | 101° |
| 2026-04-07 19:16 | 51.08018 | 12.69225 | 33351 ft | 511 kts | 101° |
| 2026-04-07 19:17 | 51.06071 | 12.80092 | 33344 ft | 511 kts | 101° |
| 2026-04-07 19:17 | 51.04116 | 12.90947 | 33365 ft | 511 kts | 101° |
| 2026-04-07 19:18 | 51.02150 | 13.01795 | 33356 ft | 511 kts | 101° |
| 2026-04-07 19:18 | 51.00174 | 13.12633 | 33350 ft | 511 kts | 101° |
| 2026-04-07 19:19 | 50.98188 | 13.23461 | 33346 ft | 511 kts | 101° |
| 2026-04-07 19:19 | 50.96194 | 13.34269 | 33371 ft | 511 kts | 101° |
| 2026-04-07 19:20 | 50.94190 | 13.45075 | 33350 ft | 511 kts | 101° |
| 2026-04-07 19:20 | 50.92174 | 13.55873 | 33340 ft | 510 kts | 101° |
| 2026-04-07 19:21 | 50.90153 | 13.66640 | 33340 ft | 510 kts | 101° |
| 2026-04-07 19:21 | 50.88120 | 13.77411 | 33342 ft | 510 kts | 101° |
| 2026-04-07 19:22 | 50.86079 | 13.88176 | 33336 ft | 510 kts | 101° |
| 2026-04-07 19:22 | 50.83483 | 13.98672 | 33327 ft | 520 kts | 115° |
| 2026-04-07 19:23 | 50.79130 | 14.07905 | 33330 ft | 530 kts | 131° |
| 2026-04-07 19:23 | 50.73865 | 14.16073 | 33358 ft | 530 kts | 132° |
| 2026-04-07 19:24 | 50.68594 | 14.24225 | 33318 ft | 531 kts | 131° |
| 2026-04-07 19:24 | 50.63350 | 14.32436 | 33313 ft | 531 kts | 131° |
| 2026-04-07 19:25 | 50.58120 | 14.40662 | 33337 ft | 532 kts | 131° |
| 2026-04-07 19:25 | 50.52885 | 14.48880 | 33310 ft | 532 kts | 131° |
| 2026-04-07 19:26 | 50.47632 | 14.57088 | 33323 ft | 533 kts | 131° |
| 2026-04-07 19:26 | 50.42366 | 14.65283 | 33325 ft | 534 kts | 131° |
| 2026-04-07 19:27 | 50.37087 | 14.73470 | 33304 ft | 534 kts | 131° |
| 2026-04-07 19:27 | 50.31808 | 14.81631 | 33314 ft | 533 kts | 131° |
| 2026-04-07 19:28 | 50.26526 | 14.89770 | 33347 ft | 534 kts | 131° |
| 2026-04-07 19:28 | 50.21224 | 14.97915 | 33321 ft | 534 kts | 131° |
| 2026-04-07 19:29 | 50.15919 | 15.06036 | 33304 ft | 535 kts | 132° |
| 2026-04-07 19:29 | 50.10596 | 15.14157 | 33305 ft | 535 kts | 132° |
| 2026-04-07 19:30 | 50.05283 | 15.22237 | 33298 ft | 535 kts | 132° |
| 2026-04-07 19:30 | 49.99987 | 15.30267 | 33285 ft | 536 kts | 132° |
| 2026-04-07 19:31 | 49.94629 | 15.38364 | 33285 ft | 537 kts | 132° |
| 2026-04-07 19:31 | 49.89264 | 15.46443 | 33302 ft | 538 kts | 132° |
| 2026-04-07 19:32 | 49.83884 | 15.54517 | 33280 ft | 538 kts | 132° |
| 2026-04-07 19:32 | 49.78503 | 15.62570 | 33272 ft | 538 kts | 133° |
| 2026-04-07 19:33 | 49.73115 | 15.70605 | 33297 ft | 538 kts | 133° |
| 2026-04-07 19:33 | 49.67881 | 15.78388 | 33266 ft | 535 kts | 133° |
| 2026-04-07 19:34 | 49.62492 | 15.86372 | 33273 ft | 539 kts | 133° |
| 2026-04-07 19:34 | 49.57980 | 15.93039 | 33303 ft | 541 kts | 133° |
| 2026-04-07 19:35 | 49.52530 | 16.01068 | 33262 ft | 544 kts | 133° |
| 2026-04-07 19:35 | 49.47093 | 16.09046 | 33262 ft | 537 kts | 133° |
| 2026-04-07 19:36 | 49.41693 | 16.16948 | 33265 ft | 536 kts | 133° |
| 2026-04-07 19:36 | 49.36285 | 16.24839 | 33309 ft | 536 kts | 133° |
| 2026-04-07 19:37 | 49.30861 | 16.32731 | 33274 ft | 538 kts | 133° |
| 2026-04-07 19:37 | 49.25416 | 16.40624 | 33262 ft | 540 kts | 133° |
| 2026-04-07 19:38 | 49.19989 | 16.48465 | 33264 ft | 540 kts | 133° |
| 2026-04-07 19:38 | 49.14520 | 16.56343 | 33297 ft | 541 kts | 133° |
| 2026-04-07 19:39 | 49.09034 | 16.64220 | 33295 ft | 542 kts | 134° |
| 2026-04-07 19:39 | 49.03527 | 16.72103 | 33296 ft | 543 kts | 134° |
| 2026-04-07 19:40 | 48.98018 | 16.79964 | 33276 ft | 543 kts | 134° |
| 2026-04-07 19:40 | 48.92499 | 16.87813 | 33232 ft | 543 kts | 134° |
| 2026-04-07 19:41 | 48.86984 | 16.95634 | 33241 ft | 543 kts | 134° |
| 2026-04-07 19:41 | 48.81458 | 17.03452 | 33236 ft | 542 kts | 133° |
| 2026-04-07 19:42 | 48.76446 | 17.11910 | 33232 ft | 536 kts | 122° |
| 2026-04-07 19:42 | 48.72351 | 17.21283 | 33219 ft | 533 kts | 118° |
| 2026-04-07 19:43 | 48.68293 | 17.30670 | 33231 ft | 533 kts | 119° |
| 2026-04-07 19:43 | 48.64179 | 17.40032 | 33198 ft | 534 kts | 119° |
| 2026-04-07 19:44 | 48.60048 | 17.49353 | 33221 ft | 534 kts | 119° |
| 2026-04-07 19:44 | 48.55911 | 17.58653 | 33254 ft | 534 kts | 119° |
| 2026-04-07 19:45 | 48.51766 | 17.67948 | 33225 ft | 534 kts | 120° |
| 2026-04-07 19:45 | 48.47601 | 17.77259 | 33212 ft | 535 kts | 120° |
| 2026-04-07 19:46 | 48.43433 | 17.86546 | 33212 ft | 535 kts | 120° |
| 2026-04-07 19:46 | 48.39255 | 17.95823 | 33236 ft | 537 kts | 120° |
| 2026-04-07 19:47 | 48.35049 | 18.05133 | 33205 ft | 538 kts | 120° |
| 2026-04-07 19:47 | 48.30831 | 18.14431 | 33198 ft | 539 kts | 120° |
| 2026-04-07 19:48 | 48.26602 | 18.23724 | 33189 ft | 538 kts | 120° |
| 2026-04-07 19:48 | 48.22369 | 18.32991 | 33203 ft | 539 kts | 120° |
| 2026-04-07 19:49 | 48.18126 | 18.42254 | 33188 ft | 539 kts | 120° |
| 2026-04-07 19:49 | 48.13869 | 18.51512 | 33185 ft | 539 kts | 120° |
| 2026-04-07 19:50 | 48.09608 | 18.60748 | 33185 ft | 539 kts | 121° |
| 2026-04-07 19:50 | 48.05335 | 18.69981 | 33183 ft | 541 kts | 121° |
| 2026-04-07 19:51 | 48.01041 | 18.79227 | 33183 ft | 542 kts | 121° |
| 2026-04-07 19:51 | 47.96729 | 18.88479 | 33186 ft | 543 kts | 121° |
| 2026-04-07 19:52 | 47.92405 | 18.97730 | 33209 ft | 543 kts | 121° |
| 2026-04-07 19:52 | 47.88098 | 19.06905 | 33167 ft | 544 kts | 121° |
| 2026-04-07 19:53 | 47.83755 | 19.16128 | 33166 ft | 544 kts | 122° |
| 2026-04-07 19:53 | 47.79374 | 19.25404 | 33152 ft | 544 kts | 122° |
| 2026-04-07 19:54 | 47.75015 | 19.34601 | 33160 ft | 545 kts | 122° |
| 2026-04-07 19:54 | 47.70664 | 19.43748 | 33150 ft | 546 kts | 122° |
| 2026-04-07 19:55 | 47.66277 | 19.52942 | 33138 ft | 546 kts | 122° |
| 2026-04-07 19:55 | 47.61883 | 19.62120 | 33140 ft | 546 kts | 122° |
| 2026-04-07 19:56 | 47.57464 | 19.71322 | 33117 ft | 548 kts | 123° |
| 2026-04-07 19:56 | 47.53040 | 19.80502 | 33118 ft | 548 kts | 123° |
| 2026-04-07 19:57 | 47.48603 | 19.89673 | 33109 ft | 548 kts | 123° |
| 2026-04-07 19:57 | 47.44159 | 19.98833 | 33136 ft | 549 kts | 123° |
| 2026-04-07 19:58 | 47.39689 | 20.08014 | 33106 ft | 550 kts | 123° |
| 2026-04-07 19:58 | 47.35211 | 20.17182 | 33099 ft | 551 kts | 123° |
| 2026-04-07 19:59 | 47.30752 | 20.26281 | 33101 ft | 551 kts | 123° |
| 2026-04-07 19:59 | 47.26248 | 20.35442 | 33100 ft | 553 kts | 123° |
| 2026-04-07 20:00 | 47.21724 | 20.44613 | 33094 ft | 553 kts | 124° |
| 2026-04-07 20:00 | 47.14932 | 20.58320 | 33097 ft | 553 kts | 124° |
| 2026-04-07 20:01 | 47.10396 | 20.67439 | 33096 ft | 552 kts | 124° |
| 2026-04-07 20:01 | 47.05862 | 20.76524 | 33088 ft | 552 kts | 124° |
| 2026-04-07 20:02 | 47.01319 | 20.85596 | 33093 ft | 552 kts | 124° |
| 2026-04-07 20:02 | 46.96779 | 20.94635 | 33108 ft | 552 kts | 124° |
| 2026-04-07 20:03 | 46.92217 | 21.03687 | 33094 ft | 553 kts | 124° |
| 2026-04-07 20:03 | 46.87641 | 21.12738 | 33088 ft | 553 kts | 124° |
| 2026-04-07 20:04 | 46.83058 | 21.21773 | 33096 ft | 554 kts | 124° |
| 2026-04-07 20:04 | 46.78457 | 21.30814 | 33093 ft | 556 kts | 124° |
| 2026-04-07 20:05 | 46.73837 | 21.39865 | 33091 ft | 557 kts | 124° |
| 2026-04-07 20:05 | 46.69236 | 21.48935 | 33086 ft | 556 kts | 122° |
| 2026-04-07 20:06 | 46.65359 | 21.58625 | 33124 ft | 553 kts | 114° |
| 2026-04-07 20:06 | 46.61778 | 21.68465 | 33087 ft | 555 kts | 115° |
| 2026-04-07 20:07 | 46.58091 | 21.78447 | 33085 ft | 556 kts | 115° |
| 2026-04-07 20:07 | 46.54388 | 21.88332 | 33083 ft | 557 kts | 115° |
| 2026-04-07 20:08 | 46.50659 | 21.98221 | 33083 ft | 560 kts | 115° |
| 2026-04-07 20:08 | 46.46911 | 22.08130 | 33068 ft | 559 kts | 116° |
| 2026-04-07 20:09 | 46.43163 | 22.18008 | 33066 ft | 559 kts | 116° |
| 2026-04-07 20:09 | 46.39413 | 22.27861 | 33089 ft | 559 kts | 116° |
| 2026-04-07 20:10 | 46.35649 | 22.37719 | 33071 ft | 559 kts | 116° |
| 2026-04-07 20:10 | 46.31912 | 22.47465 | 33078 ft | 558 kts | 116° |
| 2026-04-07 20:11 | 46.28137 | 22.57277 | 33093 ft | 558 kts | 116° |
| 2026-04-07 20:11 | 46.24348 | 22.67089 | 33073 ft | 559 kts | 116° |
| 2026-04-07 20:12 | 46.20558 | 22.76872 | 33069 ft | 558 kts | 116° |
| 2026-04-07 20:12 | 46.16762 | 22.86635 | 33068 ft | 557 kts | 116° |
| 2026-04-07 20:13 | 46.12948 | 22.96405 | 33075 ft | 559 kts | 117° |
| 2026-04-07 20:13 | 46.09125 | 23.06161 | 33069 ft | 560 kts | 117° |
| 2026-04-07 20:14 | 46.05276 | 23.15953 | 33062 ft | 562 kts | 117° |
| 2026-04-07 20:14 | 46.01416 | 23.25739 | 33027 ft | 564 kts | 117° |
| 2026-04-07 20:15 | 45.97547 | 23.35527 | 33041 ft | 562 kts | 117° |
| 2026-04-07 20:15 | 45.93669 | 23.45275 | 33059 ft | 562 kts | 117° |
| 2026-04-07 20:16 | 45.89779 | 23.55021 | 33056 ft | 563 kts | 117° |
| 2026-04-07 20:16 | 45.85876 | 23.64778 | 33054 ft | 563 kts | 118° |
| 2026-04-07 20:17 | 45.81964 | 23.74524 | 33051 ft | 564 kts | 118° |
| 2026-04-07 20:17 | 45.78043 | 23.84254 | 33035 ft | 564 kts | 118° |
| 2026-04-07 20:18 | 45.74112 | 23.93971 | 33026 ft | 564 kts | 118° |
| 2026-04-07 20:18 | 45.70172 | 24.03687 | 33046 ft | 564 kts | 118° |
| 2026-04-07 20:19 | 45.66230 | 24.13370 | 33046 ft | 563 kts | 118° |
| 2026-04-07 20:19 | 45.62311 | 24.22958 | 33042 ft | 562 kts | 118° |
| 2026-04-07 20:20 | 45.58372 | 24.32566 | 33040 ft | 561 kts | 118° |
| 2026-04-07 20:20 | 45.54419 | 24.42171 | 32983 ft | 560 kts | 118° |
| 2026-04-07 20:21 | 45.50468 | 24.51740 | 33034 ft | 559 kts | 119° |
| 2026-04-07 20:21 | 45.46520 | 24.61270 | 33026 ft | 558 kts | 119° |
| 2026-04-07 20:22 | 45.42573 | 24.70759 | 33028 ft | 557 kts | 119° |
| 2026-04-07 20:22 | 45.39264 | 24.78702 | 33060 ft | 556 kts | 119° |
| 2026-04-07 20:23 | 45.35335 | 24.88101 | 33034 ft | 558 kts | 119° |
| 2026-04-07 20:23 | 45.31326 | 24.97645 | 33024 ft | 559 kts | 119° |
| 2026-04-07 20:24 | 45.27357 | 25.07070 | 33029 ft | 560 kts | 119° |
| 2026-04-07 20:24 | 45.23346 | 25.16565 | 33036 ft | 562 kts | 119° |
| 2026-04-07 20:25 | 45.19310 | 25.26082 | 33024 ft | 563 kts | 120° |
| 2026-04-07 20:25 | 45.15264 | 25.35595 | 33017 ft | 564 kts | 120° |
| 2026-04-07 20:26 | 45.11201 | 25.45115 | 33014 ft | 565 kts | 120° |
| 2026-04-07 20:26 | 45.07127 | 25.54627 | 32991 ft | 566 kts | 120° |
| 2026-04-07 20:27 | 45.03045 | 25.64123 | 33004 ft | 565 kts | 120° |
| 2026-04-07 20:27 | 44.98960 | 25.73602 | 33015 ft | 564 kts | 120° |
| 2026-04-07 20:28 | 44.94879 | 25.83036 | 32981 ft | 563 kts | 120° |
| 2026-04-07 20:28 | 44.90795 | 25.92442 | 32993 ft | 562 kts | 120° |
| 2026-04-07 20:29 | 44.86705 | 26.01836 | 32998 ft | 562 kts | 120° |
| 2026-04-07 20:29 | 44.82604 | 26.11223 | 32990 ft | 562 kts | 120° |
| 2026-04-07 20:30 | 44.78493 | 26.20601 | 32991 ft | 563 kts | 120° |
| 2026-04-07 20:30 | 44.74373 | 26.29968 | 33005 ft | 563 kts | 120° |
| 2026-04-07 20:31 | 44.70245 | 26.39326 | 32984 ft | 565 kts | 121° |
| 2026-04-07 20:31 | 44.66084 | 26.48725 | 32978 ft | 566 kts | 121° |
| 2026-04-07 20:32 | 44.61944 | 26.58044 | 33003 ft | 567 kts | 121° |
| 2026-04-07 20:32 | 44.57727 | 26.67507 | 32945 ft | 568 kts | 121° |
| 2026-04-07 20:33 | 44.53568 | 26.76810 | 32972 ft | 567 kts | 121° |
| 2026-04-07 20:33 | 44.49374 | 26.86161 | 32973 ft | 566 kts | 121° |
| 2026-04-07 20:34 | 44.45175 | 26.95494 | 32974 ft | 566 kts | 121° |
| 2026-04-07 20:34 | 44.40976 | 27.04794 | 32975 ft | 565 kts | 121° |
| 2026-04-07 20:35 | 44.36777 | 27.14065 | 32973 ft | 564 kts | 121° |
| 2026-04-07 20:35 | 44.32570 | 27.23323 | 32981 ft | 564 kts | 121° |
| 2026-04-07 20:36 | 44.28367 | 27.32545 | 32982 ft | 563 kts | 121° |
| 2026-04-07 20:36 | 44.24150 | 27.41766 | 32984 ft | 563 kts | 121° |
| 2026-04-07 20:37 | 44.19933 | 27.50960 | 32983 ft | 563 kts | 121° |
| 2026-04-07 20:37 | 44.15712 | 27.60132 | 32979 ft | 563 kts | 121° |
| 2026-04-07 20:38 | 44.11480 | 27.69300 | 32989 ft | 563 kts | 121° |
| 2026-04-07 20:38 | 44.07240 | 27.78454 | 32985 ft | 562 kts | 121° |
| 2026-04-07 20:39 | 44.03002 | 27.87577 | 32986 ft | 562 kts | 121° |
| 2026-04-07 20:39 | 43.98749 | 27.96703 | 32987 ft | 562 kts | 121° |
| 2026-04-07 20:40 | 43.94498 | 28.05796 | 32997 ft | 562 kts | 121° |
| 2026-04-07 20:40 | 43.90233 | 28.14891 | 32988 ft | 562 kts | 121° |
| 2026-04-07 20:41 | 43.85971 | 28.23952 | 32994 ft | 561 kts | 122° |
| 2026-04-07 20:41 | 43.81728 | 28.32945 | 33007 ft | 561 kts | 122° |
| 2026-04-07 20:42 | 43.77453 | 28.41979 | 33010 ft | 561 kts | 122° |
| 2026-04-07 20:42 | 43.73172 | 28.51002 | 33019 ft | 561 kts | 122° |
| 2026-04-07 20:43 | 43.68955 | 28.60077 | 33061 ft | 563 kts | 121° |
| 2026-04-07 20:43 | 43.66857 | 28.64657 | 33279 ft | 564 kts | 121° |
| 2026-04-07 20:43 | 43.64765 | 28.69222 | 33633 ft | 562 kts | 121° |
| 2026-04-07 20:44 | 43.62675 | 28.73767 | 34002 ft | 560 kts | 121° |
| 2026-04-07 20:44 | 43.60590 | 28.78285 | 34400 ft | 554 kts | 121° |
| 2026-04-07 20:44 | 43.58526 | 28.82739 | 34859 ft | 549 kts | 121° |
| 2026-04-07 20:44 | 43.56470 | 28.87163 | 35068 ft | 550 kts | 122° |
| 2026-04-07 20:45 | 43.52297 | 28.96120 | 35042 ft | 557 kts | 122° |
| 2026-04-07 20:45 | 43.48113 | 29.05073 | 35034 ft | 554 kts | 122° |
| 2026-04-07 20:46 | 43.43947 | 29.13964 | 35031 ft | 551 kts | 122° |
| 2026-04-07 20:46 | 43.39792 | 29.22805 | 35035 ft | 549 kts | 122° |
| 2026-04-07 20:47 | 43.35643 | 29.31609 | 35044 ft | 549 kts | 122° |
| 2026-04-07 20:47 | 43.31481 | 29.40412 | 35050 ft | 550 kts | 122° |
| 2026-04-07 20:48 | 43.27300 | 29.49229 | 35050 ft | 551 kts | 122° |
| 2026-04-07 20:48 | 43.23134 | 29.57989 | 35048 ft | 553 kts | 123° |
| 2026-04-07 20:49 | 43.18923 | 29.66815 | 35049 ft | 554 kts | 123° |
| 2026-04-07 20:49 | 43.14694 | 29.75655 | 35050 ft | 555 kts | 123° |
| 2026-04-07 20:50 | 43.10460 | 29.84477 | 35007 ft | 555 kts | 123° |
| 2026-04-07 20:50 | 43.06226 | 29.93273 | 35064 ft | 553 kts | 123° |
| 2026-04-07 20:51 | 43.01990 | 30.02048 | 35047 ft | 552 kts | 123° |
| 2026-04-07 20:51 | 42.97759 | 30.10787 | 35049 ft | 551 kts | 123° |
| 2026-04-07 20:52 | 42.93530 | 30.19497 | 35056 ft | 550 kts | 123° |
| 2026-04-07 20:52 | 42.89292 | 30.28199 | 35048 ft | 550 kts | 123° |
| 2026-04-07 20:53 | 42.85045 | 30.36895 | 35050 ft | 551 kts | 123° |
| 2026-04-07 20:53 | 42.80798 | 30.45569 | 35062 ft | 551 kts | 123° |
| 2026-04-07 20:54 | 42.76602 | 30.54315 | 35058 ft | 551 kts | 118° |
| 2026-04-07 20:54 | 42.73684 | 30.63906 | 35060 ft | 547 kts | 103° |
| 2026-04-07 20:55 | 42.72296 | 30.74002 | 35071 ft | 542 kts | 92° |
| 2026-04-07 20:55 | 42.71362 | 30.84183 | 35063 ft | 544 kts | 92° |
| 2026-04-07 20:56 | 42.70367 | 30.94391 | 35059 ft | 545 kts | 93° |
| 2026-04-07 20:56 | 42.69316 | 31.04604 | 35057 ft | 546 kts | 94° |
| 2026-04-07 20:57 | 42.68245 | 31.14808 | 35053 ft | 545 kts | 94° |
| 2026-04-07 20:57 | 42.67170 | 31.25005 | 35056 ft | 545 kts | 94° |
| 2026-04-07 20:58 | 42.66089 | 31.35194 | 35058 ft | 544 kts | 94° |
| 2026-04-07 20:58 | 42.65002 | 31.45371 | 35064 ft | 545 kts | 94° |
| 2026-04-07 20:59 | 42.63905 | 31.55550 | 35061 ft | 545 kts | 94° |
| 2026-04-07 20:59 | 42.62796 | 31.65742 | 35054 ft | 546 kts | 94° |
| 2026-04-07 21:00 | 42.61122 | 31.80976 | 35066 ft | 546 kts | 94° |
| 2026-04-07 21:01 | 42.59988 | 31.91183 | 35060 ft | 547 kts | 94° |
| 2026-04-07 21:01 | 42.58847 | 32.01386 | 35065 ft | 547 kts | 94° |
| 2026-04-07 21:02 | 42.57597 | 32.11575 | 35057 ft | 547 kts | 95° |
| 2026-04-07 21:02 | 42.56427 | 32.21778 | 35058 ft | 547 kts | 94° |
| 2026-04-07 21:03 | 42.55280 | 32.31975 | 35058 ft | 547 kts | 94° |
| 2026-04-07 21:03 | 42.54108 | 32.42169 | 35094 ft | 547 kts | 94° |
| 2026-04-07 21:04 | 42.52915 | 32.52369 | 35065 ft | 548 kts | 94° |
| 2026-04-07 21:04 | 42.51709 | 32.62571 | 35059 ft | 548 kts | 95° |
| 2026-04-07 21:05 | 42.50495 | 32.72779 | 35062 ft | 548 kts | 95° |
| 2026-04-07 21:05 | 42.49276 | 32.82961 | 35059 ft | 548 kts | 95° |
| 2026-04-07 21:06 | 42.48044 | 32.93167 | 35062 ft | 548 kts | 95° |
| 2026-04-07 21:06 | 42.46806 | 33.03353 | 35063 ft | 548 kts | 95° |
| 2026-04-07 21:07 | 42.45559 | 33.13537 | 35066 ft | 548 kts | 95° |
| 2026-04-07 21:07 | 42.44313 | 33.23706 | 35063 ft | 548 kts | 95° |
| 2026-04-07 21:08 | 42.43268 | 33.32237 | 35055 ft | 548 kts | 95° |
| 2026-04-07 21:08 | 42.42013 | 33.42406 | 35060 ft | 547 kts | 95° |
| 2026-04-07 21:09 | 42.40736 | 33.52518 | 35070 ft | 549 kts | 95° |
| 2026-04-07 21:09 | 42.39433 | 33.62697 | 35071 ft | 550 kts | 95° |
| 2026-04-07 21:10 | 42.38123 | 33.72896 | 35055 ft | 550 kts | 96° |
| 2026-04-07 21:10 | 42.36808 | 33.83081 | 35064 ft | 550 kts | 96° |
| 2026-04-07 21:11 | 42.35482 | 33.93274 | 35060 ft | 551 kts | 96° |
| 2026-04-07 21:11 | 42.34150 | 34.03464 | 35047 ft | 550 kts | 96° |
| 2026-04-07 21:12 | 42.32811 | 34.13650 | 35063 ft | 550 kts | 96° |
| 2026-04-07 21:12 | 42.31466 | 34.23817 | 35062 ft | 550 kts | 96° |
| 2026-04-07 21:13 | 42.30113 | 34.33976 | 35067 ft | 549 kts | 96° |
| 2026-04-07 21:13 | 42.28747 | 34.44123 | 35073 ft | 549 kts | 97° |
| 2026-04-07 21:14 | 42.27353 | 34.54273 | 35061 ft | 550 kts | 97° |
| 2026-04-07 21:14 | 42.25949 | 34.64430 | 35067 ft | 551 kts | 97° |
| 2026-04-07 21:15 | 42.24540 | 34.74592 | 35063 ft | 551 kts | 98° |
| 2026-04-07 21:15 | 42.23122 | 34.84755 | 35069 ft | 551 kts | 98° |
| 2026-04-07 21:16 | 42.21702 | 34.94901 | 35063 ft | 551 kts | 98° |
| 2026-04-07 21:16 | 42.20275 | 35.05052 | 35062 ft | 551 kts | 98° |
| 2026-04-07 21:17 | 42.18848 | 35.15133 | 35069 ft | 550 kts | 98° |
| 2026-04-07 21:17 | 42.17404 | 35.25262 | 35068 ft | 550 kts | 98° |
| 2026-04-07 21:18 | 42.15951 | 35.35396 | 35067 ft | 550 kts | 98° |
| 2026-04-07 21:18 | 42.14491 | 35.45516 | 35056 ft | 550 kts | 98° |
| 2026-04-07 21:19 | 42.13026 | 35.55631 | 35065 ft | 551 kts | 99° |
| 2026-04-07 21:19 | 42.11555 | 35.65744 | 35070 ft | 551 kts | 99° |
| 2026-04-07 21:20 | 42.10072 | 35.75874 | 35064 ft | 551 kts | 99° |
| 2026-04-07 21:20 | 42.08583 | 35.85981 | 35065 ft | 551 kts | 99° |
| 2026-04-07 21:21 | 42.07082 | 35.96092 | 35067 ft | 551 kts | 100° |
| 2026-04-07 21:21 | 42.05574 | 36.06197 | 35066 ft | 551 kts | 100° |
| 2026-04-07 21:22 | 42.04055 | 36.16304 | 35059 ft | 551 kts | 100° |
| 2026-04-07 21:22 | 42.02528 | 36.26404 | 35081 ft | 551 kts | 100° |
| 2026-04-07 21:23 | 42.00994 | 36.36493 | 35067 ft | 551 kts | 100° |
| 2026-04-07 21:23 | 41.99447 | 36.46593 | 35065 ft | 551 kts | 100° |
| 2026-04-07 21:24 | 41.97893 | 36.56690 | 35077 ft | 552 kts | 101° |
| 2026-04-07 21:24 | 41.96326 | 36.66797 | 35067 ft | 552 kts | 101° |
| 2026-04-07 21:25 | 41.94752 | 36.76889 | 35067 ft | 552 kts | 101° |
| 2026-04-07 21:25 | 41.93171 | 36.86971 | 35067 ft | 552 kts | 101° |
| 2026-04-07 21:26 | 41.91594 | 36.96977 | 35066 ft | 551 kts | 101° |
| 2026-04-07 21:26 | 41.90309 | 37.07109 | 35061 ft | 550 kts | 93° |
| 2026-04-07 21:27 | 41.90120 | 37.17337 | 35060 ft | 547 kts | 88° |
| 2026-04-07 21:27 | 41.90040 | 37.27545 | 35066 ft | 547 kts | 88° |
| 2026-04-07 21:28 | 41.89905 | 37.37765 | 35084 ft | 548 kts | 89° |
| 2026-04-07 21:28 | 41.89731 | 37.47980 | 35077 ft | 548 kts | 89° |
| 2026-04-07 21:29 | 41.89543 | 37.58216 | 35073 ft | 548 kts | 89° |
| 2026-04-07 21:29 | 41.89351 | 37.68435 | 35062 ft | 547 kts | 90° |
| 2026-04-07 21:30 | 41.89152 | 37.78626 | 35068 ft | 546 kts | 90° |
| 2026-04-07 21:30 | 41.88945 | 37.88814 | 35099 ft | 546 kts | 90° |
| 2026-04-07 21:31 | 41.88729 | 37.98999 | 35073 ft | 546 kts | 90° |
| 2026-04-07 21:31 | 41.88503 | 38.09169 | 35067 ft | 545 kts | 91° |
| 2026-04-07 21:32 | 41.88269 | 38.19332 | 35064 ft | 544 kts | 91° |
| 2026-04-07 21:32 | 41.88026 | 38.29485 | 35067 ft | 544 kts | 91° |
| 2026-04-07 21:33 | 41.87774 | 38.39627 | 35068 ft | 544 kts | 91° |
| 2026-04-07 21:33 | 41.87514 | 38.49760 | 35052 ft | 543 kts | 91° |
| 2026-04-07 21:34 | 41.87245 | 38.59872 | 35057 ft | 542 kts | 91° |
| 2026-04-07 21:34 | 41.86968 | 38.69985 | 35063 ft | 542 kts | 91° |
| 2026-04-07 21:35 | 41.86681 | 38.80094 | 35062 ft | 542 kts | 91° |
| 2026-04-07 21:35 | 41.86386 | 38.90201 | 35062 ft | 542 kts | 91° |
| 2026-04-07 21:36 | 41.86085 | 39.00228 | 35056 ft | 542 kts | 91° |
| 2026-04-07 21:36 | 41.85772 | 39.10328 | 35064 ft | 542 kts | 92° |
| 2026-04-07 21:37 | 41.85451 | 39.20416 | 35058 ft | 541 kts | 92° |
| 2026-04-07 21:37 | 41.85121 | 39.30503 | 35046 ft | 540 kts | 92° |
| 2026-04-07 21:38 | 41.84784 | 39.40558 | 35049 ft | 539 kts | 92° |
| 2026-04-07 21:38 | 41.84439 | 39.50604 | 35063 ft | 538 kts | 92° |
| 2026-04-07 21:39 | 41.84093 | 39.60622 | 35044 ft | 538 kts | 92° |
| 2026-04-07 21:39 | 41.83749 | 39.70638 | 35039 ft | 538 kts | 92° |
| 2026-04-07 21:40 | 41.83395 | 39.80653 | 35044 ft | 538 kts | 92° |
| 2026-04-07 21:40 | 41.83031 | 39.90670 | 35047 ft | 538 kts | 92° |
| 2026-04-07 21:41 | 41.82658 | 40.00697 | 35041 ft | 539 kts | 92° |
| 2026-04-07 21:41 | 41.82276 | 40.10738 | 35041 ft | 539 kts | 93° |
| 2026-04-07 21:42 | 41.81872 | 40.20772 | 35050 ft | 539 kts | 93° |
| 2026-04-07 21:42 | 41.81441 | 40.30821 | 35045 ft | 540 kts | 93° |
| 2026-04-07 21:43 | 41.81004 | 40.40859 | 35042 ft | 539 kts | 93° |
| 2026-04-07 21:43 | 41.80563 | 40.50890 | 35040 ft | 539 kts | 93° |
| 2026-04-07 21:44 | 41.80114 | 40.60917 | 35039 ft | 539 kts | 94° |
| 2026-04-07 21:44 | 41.79651 | 40.70928 | 35043 ft | 539 kts | 94° |
| 2026-04-07 21:45 | 41.79157 | 40.80961 | 35044 ft | 539 kts | 94° |
| 2026-04-07 21:45 | 41.78655 | 40.90974 | 35047 ft | 539 kts | 94° |
| 2026-04-07 21:46 | 41.78149 | 41.00925 | 35036 ft | 538 kts | 94° |
| 2026-04-07 21:46 | 41.77635 | 41.10912 | 35043 ft | 537 kts | 94° |
| 2026-04-07 21:47 | 41.77114 | 41.20873 | 35045 ft | 536 kts | 94° |
| 2026-04-07 21:47 | 41.76585 | 41.30818 | 35049 ft | 535 kts | 95° |
| 2026-04-07 21:48 | 41.76049 | 41.40739 | 35043 ft | 534 kts | 95° |
| 2026-04-07 21:48 | 41.75505 | 41.50638 | 35041 ft | 532 kts | 95° |
| 2026-04-07 21:49 | 41.74954 | 41.60510 | 35043 ft | 531 kts | 95° |
| 2026-04-07 21:49 | 41.74395 | 41.70359 | 35043 ft | 530 kts | 95° |
| 2026-04-07 21:50 | 41.73830 | 41.80188 | 35026 ft | 529 kts | 95° |
| 2026-04-07 21:50 | 41.73258 | 41.89998 | 35036 ft | 528 kts | 95° |
| 2026-04-07 21:51 | 41.72677 | 41.99790 | 35026 ft | 527 kts | 95° |
| 2026-04-07 21:51 | 41.72081 | 42.09560 | 35030 ft | 526 kts | 97° |
| 2026-04-07 21:52 | 41.71105 | 42.19248 | 35007 ft | 524 kts | 99° |
| 2026-04-07 21:52 | 41.70017 | 42.28870 | 35007 ft | 522 kts | 99° |
| 2026-04-07 21:53 | 41.68935 | 42.38458 | 35001 ft | 520 kts | 99° |
| 2026-04-07 21:53 | 41.68049 | 42.46415 | 35000 ft | 520 kts | 99° |
| 2026-04-07 21:54 | 41.66987 | 42.55981 | 34991 ft | 520 kts | 99° |
| 2026-04-07 21:54 | 41.65917 | 42.65542 | 34991 ft | 520 kts | 99° |
| 2026-04-07 21:55 | 41.64837 | 42.75104 | 34974 ft | 521 kts | 99° |
| 2026-04-07 21:55 | 41.63746 | 42.84675 | 34974 ft | 521 kts | 100° |
| 2026-04-07 21:56 | 41.62645 | 42.94267 | 34957 ft | 522 kts | 100° |
| 2026-04-07 21:56 | 41.61536 | 43.03850 | 34949 ft | 521 kts | 99° |
| 2026-04-07 21:57 | 41.60423 | 43.13411 | 34952 ft | 521 kts | 99° |
| 2026-04-07 21:57 | 41.59302 | 43.22962 | 34951 ft | 520 kts | 100° |
| 2026-04-07 21:58 | 41.58181 | 43.32441 | 34959 ft | 520 kts | 100° |
| 2026-04-07 21:58 | 41.57048 | 43.41952 | 34942 ft | 518 kts | 100° |
| 2026-04-07 21:59 | 41.55910 | 43.51439 | 34941 ft | 516 kts | 100° |
| 2026-04-07 21:59 | 41.54767 | 43.60895 | 34947 ft | 515 kts | 100° |
| 2026-04-07 22:00 | 41.53619 | 43.70327 | 34940 ft | 514 kts | 100° |
| 2026-04-07 22:00 | 41.52466 | 43.79734 | 34940 ft | 513 kts | 100° |
| 2026-04-07 22:01 | 41.51306 | 43.89134 | 34939 ft | 514 kts | 100° |
| 2026-04-07 22:01 | 41.50135 | 43.98548 | 34947 ft | 515 kts | 100° |
| 2026-04-07 22:02 | 41.48956 | 44.07976 | 34945 ft | 515 kts | 100° |
| 2026-04-07 22:02 | 41.47769 | 44.17395 | 34943 ft | 516 kts | 100° |
| 2026-04-07 22:03 | 41.46572 | 44.26829 | 34949 ft | 516 kts | 100° |
| 2026-04-07 22:03 | 41.44762 | 44.40981 | 34950 ft | 516 kts | 100° |
| 2026-04-07 22:04 | 41.43545 | 44.50407 | 34943 ft | 516 kts | 100° |
| 2026-04-07 22:04 | 41.42320 | 44.59845 | 34934 ft | 517 kts | 100° |
| 2026-04-07 22:05 | 41.41088 | 44.69269 | 34934 ft | 516 kts | 100° |
| 2026-04-07 22:05 | 41.39856 | 44.78632 | 34925 ft | 516 kts | 101° |
| 2026-04-07 22:06 | 41.38610 | 44.88042 | 34908 ft | 516 kts | 101° |
| 2026-04-07 22:06 | 41.37358 | 44.97439 | 34914 ft | 515 kts | 101° |
| 2026-04-07 22:07 | 41.36082 | 45.06826 | 34912 ft | 515 kts | 103° |
| 2026-04-07 22:07 | 41.34055 | 45.15927 | 34912 ft | 513 kts | 110° |
| 2026-04-07 22:08 | 41.31684 | 45.24869 | 34907 ft | 513 kts | 110° |
| 2026-04-07 22:08 | 41.29348 | 45.33825 | 34911 ft | 513 kts | 110° |
| 2026-04-07 22:09 | 41.27037 | 45.42790 | 34909 ft | 513 kts | 110° |
| 2026-04-07 22:09 | 41.24723 | 45.51749 | 34886 ft | 513 kts | 110° |
| 2026-04-07 22:10 | 41.22396 | 45.60711 | 34899 ft | 512 kts | 110° |
| 2026-04-07 22:10 | 41.20058 | 45.69651 | 34903 ft | 512 kts | 110° |
| 2026-04-07 22:11 | 41.17695 | 45.78558 | 34899 ft | 512 kts | 110° |
| 2026-04-07 22:11 | 41.15328 | 45.87449 | 34890 ft | 511 kts | 110° |
| 2026-04-07 22:12 | 41.12961 | 45.96327 | 34890 ft | 510 kts | 110° |
| 2026-04-07 22:12 | 41.10589 | 46.05193 | 34889 ft | 510 kts | 110° |
| 2026-04-07 22:13 | 41.08213 | 46.14046 | 34879 ft | 509 kts | 110° |
| 2026-04-07 22:13 | 41.05834 | 46.22879 | 34895 ft | 509 kts | 110° |
| 2026-04-07 22:14 | 41.03465 | 46.31653 | 34890 ft | 509 kts | 110° |
| 2026-04-07 22:14 | 41.01104 | 46.40503 | 34886 ft | 510 kts | 110° |
| 2026-04-07 22:15 | 40.98749 | 46.49342 | 34878 ft | 510 kts | 110° |
| 2026-04-07 22:15 | 40.96382 | 46.58182 | 34881 ft | 509 kts | 110° |
| 2026-04-07 22:16 | 40.94004 | 46.67015 | 34894 ft | 509 kts | 110° |
| 2026-04-07 22:16 | 40.91622 | 46.75840 | 34881 ft | 509 kts | 111° |
| 2026-04-07 22:17 | 40.89230 | 46.84662 | 34891 ft | 510 kts | 111° |
| 2026-04-07 22:17 | 40.86807 | 46.93488 | 34890 ft | 511 kts | 111° |
| 2026-04-07 22:18 | 40.84376 | 47.02309 | 34874 ft | 512 kts | 111° |
| 2026-04-07 22:18 | 40.81940 | 47.11139 | 34879 ft | 512 kts | 111° |
| 2026-04-07 22:19 | 40.79491 | 47.19980 | 34875 ft | 513 kts | 111° |
| 2026-04-07 22:19 | 40.77030 | 47.28828 | 34870 ft | 514 kts | 111° |
| 2026-04-07 22:20 | 40.74563 | 47.37685 | 34858 ft | 514 kts | 111° |
| 2026-04-07 22:20 | 40.72085 | 47.46516 | 34860 ft | 514 kts | 111° |
| 2026-04-07 22:21 | 40.69592 | 47.55337 | 34857 ft | 513 kts | 111° |
| 2026-04-07 22:21 | 40.67097 | 47.64149 | 34856 ft | 513 kts | 111° |
| 2026-04-07 22:22 | 40.64602 | 47.72933 | 34853 ft | 512 kts | 112° |
| 2026-04-07 22:22 | 40.62102 | 47.81713 | 34854 ft | 512 kts | 112° |
| 2026-04-07 22:23 | 40.59682 | 47.90532 | 34853 ft | 512 kts | 106° |
| 2026-04-07 22:23 | 40.58482 | 47.99769 | 34840 ft | 513 kts | 94° |
| 2026-04-07 22:24 | 40.58631 | 48.09141 | 34852 ft | 513 kts | 86° |
| 2026-04-07 22:24 | 40.58962 | 48.18521 | 34843 ft | 513 kts | 88° |
| 2026-04-07 22:25 | 40.59208 | 48.27891 | 34840 ft | 513 kts | 88° |
| 2026-04-07 22:25 | 40.59448 | 48.37265 | 34843 ft | 512 kts | 88° |
| 2026-04-07 22:26 | 40.59687 | 48.46628 | 34833 ft | 512 kts | 88° |
| 2026-04-07 22:26 | 40.59921 | 48.55994 | 34830 ft | 512 kts | 88° |
| 2026-04-07 22:27 | 40.60147 | 48.65365 | 34832 ft | 512 kts | 88° |
| 2026-04-07 22:27 | 40.60365 | 48.74737 | 34828 ft | 512 kts | 88° |
| 2026-04-07 22:28 | 40.60575 | 48.84107 | 34806 ft | 512 kts | 88° |
| 2026-04-07 22:28 | 40.60777 | 48.93413 | 34808 ft | 512 kts | 89° |
| 2026-04-07 22:29 | 40.60972 | 49.02774 | 34780 ft | 513 kts | 89° |
| 2026-04-07 22:29 | 40.61160 | 49.12170 | 34792 ft | 513 kts | 89° |
| 2026-04-07 22:30 | 40.61352 | 49.21575 | 34773 ft | 514 kts | 88° |
| 2026-04-07 22:30 | 40.61843 | 49.30964 | 34768 ft | 515 kts | 85° |
| 2026-04-07 22:31 | 40.62467 | 49.40371 | 34759 ft | 516 kts | 85° |
| 2026-04-07 22:31 | 40.63043 | 49.49788 | 34754 ft | 517 kts | 86° |
| 2026-04-07 22:32 | 40.63571 | 49.59225 | 34744 ft | 517 kts | 86° |
| 2026-04-07 22:32 | 40.64081 | 49.68676 | 34760 ft | 517 kts | 86° |
| 2026-04-07 22:33 | 40.64587 | 49.78118 | 34769 ft | 517 kts | 86° |
| 2026-04-07 22:33 | 40.65087 | 49.87555 | 34767 ft | 517 kts | 86° |
| 2026-04-07 22:34 | 40.65576 | 49.96923 | 34771 ft | 516 kts | 86° |
| 2026-04-07 22:34 | 40.66061 | 50.06346 | 34774 ft | 515 kts | 86° |
| 2026-04-07 22:35 | 40.66536 | 50.15751 | 34769 ft | 515 kts | 86° |
| 2026-04-07 22:35 | 40.67005 | 50.25166 | 34778 ft | 515 kts | 87° |
| 2026-04-07 22:36 | 40.67466 | 50.34590 | 34786 ft | 516 kts | 87° |
| 2026-04-07 22:36 | 40.67921 | 50.44028 | 34797 ft | 517 kts | 87° |
| 2026-04-07 22:37 | 40.68369 | 50.53489 | 34798 ft | 517 kts | 87° |
| 2026-04-07 22:37 | 40.68809 | 50.62944 | 34804 ft | 518 kts | 87° |
| 2026-04-07 22:38 | 40.69244 | 50.72428 | 34800 ft | 518 kts | 87° |
| 2026-04-07 22:38 | 40.69670 | 50.81909 | 34803 ft | 519 kts | 87° |
| 2026-04-07 22:39 | 40.70089 | 50.91405 | 34829 ft | 519 kts | 87° |
| 2026-04-07 22:39 | 40.70500 | 51.00892 | 34818 ft | 519 kts | 87° |
| 2026-04-07 22:40 | 40.70904 | 51.10385 | 34821 ft | 519 kts | 87° |
| 2026-04-07 22:40 | 40.71234 | 51.18277 | 34821 ft | 519 kts | 88° |
| 2026-04-07 22:41 | 40.71623 | 51.27774 | 34819 ft | 518 kts | 88° |
| 2026-04-07 22:41 | 40.72004 | 51.37244 | 34822 ft | 518 kts | 88° |
| 2026-04-07 22:42 | 40.72380 | 51.46726 | 34827 ft | 517 kts | 87° |
| 2026-04-07 22:42 | 40.73408 | 51.56117 | 34838 ft | 518 kts | 77° |
| 2026-04-07 22:43 | 40.75001 | 51.65376 | 34833 ft | 518 kts | 77° |
| 2026-04-07 22:43 | 40.76572 | 51.74641 | 34837 ft | 518 kts | 78° |
| 2026-04-07 22:44 | 40.78095 | 51.83920 | 34836 ft | 518 kts | 78° |
| 2026-04-07 22:44 | 40.79598 | 51.93212 | 34845 ft | 517 kts | 78° |
| 2026-04-07 22:45 | 40.81092 | 52.02491 | 34840 ft | 517 kts | 78° |
| 2026-04-07 22:45 | 40.82582 | 52.11775 | 34837 ft | 516 kts | 78° |
| 2026-04-07 22:46 | 40.84064 | 52.21058 | 34846 ft | 516 kts | 78° |
| 2026-04-07 22:46 | 40.85536 | 52.30332 | 34851 ft | 516 kts | 78° |
| 2026-04-07 22:47 | 40.87002 | 52.39619 | 34860 ft | 516 kts | 79° |
| 2026-04-07 22:47 | 40.88460 | 52.48901 | 34854 ft | 516 kts | 79° |
| 2026-04-07 22:48 | 40.89898 | 52.58118 | 34858 ft | 515 kts | 79° |
| 2026-04-07 22:48 | 40.90711 | 52.67508 | 34857 ft | 514 kts | 88° |
| 2026-04-07 22:49 | 40.91050 | 52.76925 | 34857 ft | 513 kts | 88° |
| 2026-04-07 22:49 | 40.91418 | 52.86359 | 34858 ft | 513 kts | 88° |
| 2026-04-07 22:50 | 40.91818 | 52.95776 | 34855 ft | 513 kts | 88° |
| 2026-04-07 22:50 | 40.92215 | 53.05205 | 34864 ft | 514 kts | 88° |
| 2026-04-07 22:51 | 40.92599 | 53.14640 | 34868 ft | 514 kts | 88° |
| 2026-04-07 22:51 | 40.92960 | 53.24097 | 34862 ft | 515 kts | 88° |
| 2026-04-07 22:52 | 40.93310 | 53.33548 | 34865 ft | 515 kts | 88° |
| 2026-04-07 22:52 | 40.93653 | 53.43002 | 34869 ft | 515 kts | 88° |
| 2026-04-07 22:53 | 40.93992 | 53.52467 | 34873 ft | 515 kts | 88° |
| 2026-04-07 22:53 | 40.94322 | 53.61921 | 34867 ft | 514 kts | 88° |
| 2026-04-07 22:54 | 40.94644 | 53.71358 | 34871 ft | 513 kts | 89° |
| 2026-04-07 22:54 | 40.94958 | 53.80789 | 34867 ft | 513 kts | 89° |
| 2026-04-07 22:55 | 40.95263 | 53.90207 | 34868 ft | 512 kts | 89° |
| 2026-04-07 22:55 | 40.95561 | 53.99617 | 34868 ft | 512 kts | 89° |
| 2026-04-07 22:56 | 40.95851 | 54.09019 | 34872 ft | 512 kts | 89° |
| 2026-04-07 22:56 | 40.96133 | 54.18428 | 34871 ft | 512 kts | 89° |
| 2026-04-07 22:57 | 40.96408 | 54.27857 | 34872 ft | 513 kts | 89° |
| 2026-04-07 22:57 | 40.96674 | 54.37230 | 34872 ft | 514 kts | 89° |
| 2026-04-07 22:58 | 40.96935 | 54.46686 | 34874 ft | 515 kts | 89° |
| 2026-04-07 22:58 | 40.97188 | 54.56158 | 34871 ft | 515 kts | 89° |
| 2026-04-07 22:59 | 40.97434 | 54.65625 | 34881 ft | 515 kts | 89° |
| 2026-04-07 22:59 | 40.97672 | 54.75097 | 34863 ft | 515 kts | 89° |
| 2026-04-07 23:00 | 40.97903 | 54.84562 | 34879 ft | 514 kts | 89° |
| 2026-04-07 23:00 | 40.98124 | 54.94035 | 34885 ft | 515 kts | 89° |
| 2026-04-07 23:01 | 40.98331 | 55.03497 | 34884 ft | 515 kts | 89° |
| 2026-04-07 23:02 | 40.98628 | 55.17695 | 34880 ft | 514 kts | 90° |
| 2026-04-07 23:02 | 40.98817 | 55.27147 | 34885 ft | 514 kts | 90° |
| 2026-04-07 23:03 | 40.98998 | 55.36605 | 34870 ft | 514 kts | 90° |
| 2026-04-07 23:03 | 40.99172 | 55.46065 | 34881 ft | 514 kts | 90° |
| 2026-04-07 23:04 | 40.99339 | 55.55522 | 34887 ft | 515 kts | 90° |
| 2026-04-07 23:04 | 40.99497 | 55.64995 | 34879 ft | 515 kts | 90° |
| 2026-04-07 23:05 | 40.99649 | 55.74423 | 34878 ft | 515 kts | 90° |
| 2026-04-07 23:05 | 40.99797 | 55.83912 | 34878 ft | 515 kts | 90° |
| 2026-04-07 23:06 | 40.99949 | 55.93386 | 34873 ft | 515 kts | 90° |
| 2026-04-07 23:06 | 41.00095 | 56.02874 | 34869 ft | 515 kts | 90° |
| 2026-04-07 23:07 | 41.00217 | 56.11341 | 34874 ft | 515 kts | 90° |
| 2026-04-07 23:07 | 41.00332 | 56.19902 | 34865 ft | 516 kts | 90° |
| 2026-04-07 23:08 | 41.00454 | 56.29398 | 34869 ft | 516 kts | 90° |
| 2026-04-07 23:08 | 41.00563 | 56.38413 | 34874 ft | 516 kts | 90° |
| 2026-04-07 23:09 | 41.00673 | 56.47903 | 34872 ft | 516 kts | 90° |
| 2026-04-07 23:09 | 41.01388 | 56.57360 | 34874 ft | 516 kts | 81° |
| 2026-04-07 23:10 | 41.02561 | 56.66668 | 34866 ft | 516 kts | 81° |
| 2026-04-07 23:10 | 41.03724 | 56.76039 | 34870 ft | 516 kts | 81° |
| 2026-04-07 23:11 | 41.04844 | 56.85427 | 34876 ft | 516 kts | 81° |
| 2026-04-07 23:11 | 41.05940 | 56.94812 | 34871 ft | 516 kts | 82° |
| 2026-04-07 23:12 | 41.07029 | 57.04202 | 34873 ft | 515 kts | 82° |
| 2026-04-07 23:12 | 41.08113 | 57.13595 | 34867 ft | 515 kts | 82° |
| 2026-04-07 23:13 | 41.09189 | 57.22979 | 34869 ft | 515 kts | 82° |
| 2026-04-07 23:13 | 41.10257 | 57.32367 | 34874 ft | 515 kts | 82° |
| 2026-04-07 23:14 | 41.11317 | 57.41753 | 34866 ft | 514 kts | 82° |
| 2026-04-07 23:14 | 41.12367 | 57.51121 | 34865 ft | 513 kts | 82° |
| 2026-04-07 23:15 | 41.13409 | 57.60489 | 34854 ft | 513 kts | 82° |
| 2026-04-07 23:15 | 41.14444 | 57.69861 | 34865 ft | 513 kts | 82° |
| 2026-04-07 23:16 | 41.15463 | 57.79167 | 34858 ft | 513 kts | 82° |
| 2026-04-07 23:16 | 41.16482 | 57.88540 | 34857 ft | 513 kts | 82° |
| 2026-04-07 23:17 | 41.17493 | 57.97911 | 34858 ft | 513 kts | 82° |
| 2026-04-07 23:17 | 41.18499 | 58.07299 | 34856 ft | 514 kts | 82° |
| 2026-04-07 23:18 | 41.19495 | 58.16695 | 34856 ft | 514 kts | 82° |
| 2026-04-07 23:18 | 41.20480 | 58.26091 | 34855 ft | 514 kts | 82° |
| 2026-04-07 23:19 | 41.21459 | 58.35496 | 34859 ft | 514 kts | 82° |
| 2026-04-07 23:19 | 41.22430 | 58.44893 | 34853 ft | 513 kts | 82° |
| 2026-04-07 23:20 | 41.23393 | 58.54294 | 34849 ft | 513 kts | 82° |
| 2026-04-07 23:20 | 41.24348 | 58.63685 | 34843 ft | 513 kts | 82° |
| 2026-04-07 23:21 | 41.25296 | 58.73085 | 34849 ft | 514 kts | 83° |
| 2026-04-07 23:21 | 41.26236 | 58.82496 | 34847 ft | 514 kts | 83° |
| 2026-04-07 23:22 | 41.27172 | 58.91933 | 34842 ft | 515 kts | 83° |
| 2026-04-07 23:22 | 41.28093 | 59.01309 | 34844 ft | 515 kts | 83° |
| 2026-04-07 23:23 | 41.29012 | 59.10739 | 34841 ft | 515 kts | 83° |
| 2026-04-07 23:23 | 41.29924 | 59.20192 | 34837 ft | 514 kts | 83° |
| 2026-04-07 23:24 | 41.30827 | 59.29622 | 34834 ft | 514 kts | 83° |
| 2026-04-07 23:24 | 41.31723 | 59.39056 | 34840 ft | 513 kts | 83° |
| 2026-04-07 23:25 | 41.32607 | 59.48461 | 34833 ft | 512 kts | 83° |
| 2026-04-07 23:25 | 41.33484 | 59.57860 | 34820 ft | 512 kts | 83° |
| 2026-04-07 23:26 | 41.34225 | 59.67263 | 34823 ft | 511 kts | 88° |
| 2026-04-07 23:26 | 41.33931 | 59.76684 | 34833 ft | 510 kts | 95° |
| 2026-04-07 23:27 | 41.33420 | 59.86094 | 34830 ft | 510 kts | 95° |
| 2026-04-07 23:27 | 41.32969 | 59.95511 | 34828 ft | 510 kts | 94° |
| 2026-04-07 23:28 | 41.32528 | 60.04932 | 34827 ft | 510 kts | 94° |
| 2026-04-07 23:28 | 41.32083 | 60.14290 | 34834 ft | 510 kts | 95° |
| 2026-04-07 23:29 | 41.31633 | 60.23701 | 34821 ft | 510 kts | 95° |
| 2026-04-07 23:29 | 41.31176 | 60.33103 | 34827 ft | 509 kts | 95° |
| 2026-04-07 23:30 | 41.30749 | 60.42512 | 34829 ft | 510 kts | 92° |
| 2026-04-07 23:30 | 41.31103 | 60.51932 | 34830 ft | 510 kts | 86° |
| 2026-04-07 23:31 | 41.31574 | 60.59742 | 34835 ft | 510 kts | 86° |
| 2026-04-07 23:31 | 41.32107 | 60.69145 | 34829 ft | 509 kts | 87° |
| 2026-04-07 23:32 | 41.32597 | 60.78522 | 34835 ft | 508 kts | 87° |
| 2026-04-07 23:32 | 41.33071 | 60.87902 | 34835 ft | 507 kts | 87° |
| 2026-04-07 23:33 | 41.33537 | 60.97259 | 34841 ft | 507 kts | 87° |
| 2026-04-07 23:33 | 41.33998 | 61.06609 | 34842 ft | 506 kts | 87° |
| 2026-04-07 23:34 | 41.34450 | 61.15947 | 34846 ft | 505 kts | 88° |
| 2026-04-07 23:34 | 41.34894 | 61.25271 | 34838 ft | 505 kts | 88° |
| 2026-04-07 23:35 | 41.35331 | 61.34597 | 34847 ft | 504 kts | 88° |
| 2026-04-07 23:35 | 41.35761 | 61.43909 | 34845 ft | 504 kts | 88° |
| 2026-04-07 23:36 | 41.36178 | 61.53218 | 34847 ft | 504 kts | 88° |
| 2026-04-07 23:36 | 41.36585 | 61.62473 | 34852 ft | 504 kts | 88° |
| 2026-04-07 23:37 | 41.36987 | 61.71773 | 34851 ft | 504 kts | 88° |
| 2026-04-07 23:37 | 41.37382 | 61.81090 | 34854 ft | 504 kts | 88° |
| 2026-04-07 23:38 | 41.37771 | 61.90409 | 34855 ft | 505 kts | 88° |
| 2026-04-07 23:38 | 41.38153 | 61.99756 | 34860 ft | 505 kts | 89° |
| 2026-04-07 23:39 | 41.38526 | 62.09091 | 34863 ft | 504 kts | 89° |
| 2026-04-07 23:39 | 41.38892 | 62.18410 | 34863 ft | 504 kts | 89° |
| 2026-04-07 23:40 | 41.39250 | 62.27723 | 34872 ft | 503 kts | 89° |
| 2026-04-07 23:40 | 41.39599 | 62.37022 | 34861 ft | 502 kts | 89° |
| 2026-04-07 23:41 | 41.39941 | 62.46290 | 34868 ft | 500 kts | 89° |
| 2026-04-07 23:41 | 41.40283 | 62.55522 | 34863 ft | 499 kts | 89° |
| 2026-04-07 23:42 | 41.40651 | 62.64747 | 34878 ft | 498 kts | 89° |
| 2026-04-07 23:42 | 41.41015 | 62.73959 | 34865 ft | 498 kts | 89° |
| 2026-04-07 23:43 | 41.41368 | 62.83169 | 34857 ft | 498 kts | 90° |
| 2026-04-07 23:43 | 41.41712 | 62.92393 | 34866 ft | 498 kts | 90° |
| 2026-04-07 23:44 | 41.42047 | 63.01611 | 34868 ft | 498 kts | 90° |
| 2026-04-07 23:44 | 41.42375 | 63.10826 | 34872 ft | 498 kts | 90° |
| 2026-04-07 23:45 | 41.42697 | 63.20052 | 34867 ft | 498 kts | 90° |
| 2026-04-07 23:45 | 41.43010 | 63.29249 | 34868 ft | 497 kts | 90° |
| 2026-04-07 23:46 | 41.43314 | 63.38391 | 34871 ft | 497 kts | 90° |
| 2026-04-07 23:46 | 41.43612 | 63.47578 | 34857 ft | 496 kts | 91° |
| 2026-04-07 23:47 | 41.43903 | 63.56763 | 34864 ft | 496 kts | 91° |
| 2026-04-07 23:47 | 41.44188 | 63.65960 | 34872 ft | 497 kts | 91° |
| 2026-04-07 23:48 | 41.44453 | 63.75152 | 34867 ft | 497 kts | 91° |
| 2026-04-07 23:48 | 41.44700 | 63.84355 | 34872 ft | 496 kts | 91° |
| 2026-04-07 23:49 | 41.44941 | 63.93549 | 34872 ft | 496 kts | 91° |
| 2026-04-07 23:49 | 41.45177 | 64.02721 | 34869 ft | 496 kts | 91° |
| 2026-04-07 23:50 | 41.45407 | 64.11891 | 34867 ft | 494 kts | 92° |
| 2026-04-07 23:50 | 41.45628 | 64.21049 | 34872 ft | 493 kts | 92° |
| 2026-04-07 23:51 | 41.45841 | 64.30180 | 34873 ft | 492 kts | 92° |
| 2026-04-07 23:51 | 41.46047 | 64.39283 | 34859 ft | 491 kts | 92° |
| 2026-04-07 23:52 | 41.46245 | 64.48385 | 34869 ft | 491 kts | 92° |
| 2026-04-07 23:52 | 41.46434 | 64.57402 | 34881 ft | 490 kts | 92° |
| 2026-04-07 23:53 | 41.46617 | 64.66503 | 34880 ft | 491 kts | 92° |
| 2026-04-07 23:53 | 41.46795 | 64.75601 | 34878 ft | 491 kts | 92° |
| 2026-04-07 23:54 | 41.46964 | 64.84709 | 34883 ft | 491 kts | 92° |
| 2026-04-07 23:54 | 41.47127 | 64.93821 | 34882 ft | 492 kts | 92° |
| 2026-04-07 23:55 | 41.47283 | 65.02941 | 34888 ft | 492 kts | 93° |
| 2026-04-07 23:55 | 41.47431 | 65.12049 | 34881 ft | 491 kts | 93° |
| 2026-04-07 23:56 | 41.47572 | 65.21153 | 34870 ft | 491 kts | 93° |
| 2026-04-07 23:56 | 41.47705 | 65.30238 | 34853 ft | 491 kts | 93° |
| 2026-04-07 23:57 | 41.47832 | 65.39331 | 34882 ft | 490 kts | 93° |
| 2026-04-07 23:57 | 41.47950 | 65.48342 | 34890 ft | 489 kts | 93° |
| 2026-04-07 23:58 | 41.48045 | 65.55972 | 34888 ft | 489 kts | 94° |
| 2026-04-07 23:58 | 41.48146 | 65.64651 | 34999 ft | 489 kts | 94° |
| 2026-04-07 23:58 | 41.48196 | 65.69127 | 35254 ft | 488 kts | 94° |
| 2026-04-07 23:59 | 41.48245 | 65.73642 | 35502 ft | 488 kts | 94° |
| 2026-04-07 23:59 | 41.48293 | 65.78167 | 35724 ft | 488 kts | 94° |
| 2026-04-07 23:59 | 41.48328 | 65.82695 | 35912 ft | 489 kts | 94° |
| 2026-04-07 23:59 | 41.48344 | 65.87233 | 36092 ft | 490 kts | 94° |
| 2026-04-08 00:00 | 41.48351 | 65.91776 | 36281 ft | 490 kts | 94° |
| 2026-04-08 00:00 | 41.48354 | 65.96319 | 36506 ft | 490 kts | 94° |
| 2026-04-08 00:00 | 41.48358 | 66.00858 | 36716 ft | 490 kts | 94° |
| 2026-04-08 00:01 | 41.48365 | 66.09986 | 36869 ft | 494 kts | 94° |
| 2026-04-08 00:01 | 41.48370 | 66.19166 | 36896 ft | 495 kts | 94° |
| 2026-04-08 00:02 | 41.48369 | 66.28328 | 36892 ft | 493 kts | 94° |
| 2026-04-08 00:02 | 41.48360 | 66.37444 | 36900 ft | 491 kts | 94° |
| 2026-04-08 00:03 | 41.48342 | 66.46541 | 36908 ft | 490 kts | 94° |
| 2026-04-08 00:03 | 41.48241 | 66.60137 | 36898 ft | 486 kts | 98° |
| 2026-04-08 00:04 | 41.47223 | 66.68953 | 36917 ft | 480 kts | 106° |
| 2026-04-08 00:04 | 41.45887 | 66.77667 | 36918 ft | 480 kts | 106° |
| 2026-04-08 00:05 | 41.44572 | 66.86392 | 36921 ft | 481 kts | 105° |
| 2026-04-08 00:05 | 41.43283 | 66.95084 | 36918 ft | 481 kts | 105° |
| 2026-04-08 00:06 | 41.41986 | 67.03834 | 36927 ft | 482 kts | 105° |
| 2026-04-08 00:06 | 41.40679 | 67.12608 | 36928 ft | 483 kts | 105° |
| 2026-04-08 00:07 | 41.39361 | 67.21391 | 36927 ft | 484 kts | 105° |
| 2026-04-08 00:07 | 41.38036 | 67.30173 | 36923 ft | 484 kts | 105° |
| 2026-04-08 00:08 | 41.36705 | 67.38950 | 36925 ft | 483 kts | 106° |
| 2026-04-08 00:08 | 41.35368 | 67.47714 | 36927 ft | 483 kts | 106° |
| 2026-04-08 00:09 | 41.34024 | 67.56472 | 36909 ft | 483 kts | 106° |
| 2026-04-08 00:09 | 41.32680 | 67.65198 | 36926 ft | 481 kts | 106° |
| 2026-04-08 00:10 | 41.31328 | 67.73923 | 36936 ft | 481 kts | 106° |
| 2026-04-08 00:10 | 41.29972 | 67.82625 | 36933 ft | 480 kts | 106° |
| 2026-04-08 00:11 | 41.28611 | 67.91320 | 36930 ft | 480 kts | 106° |
| 2026-04-08 00:11 | 41.27630 | 68.00134 | 36948 ft | 483 kts | 101° |
| 2026-04-08 00:12 | 41.26889 | 68.09019 | 36933 ft | 484 kts | 101° |
| 2026-04-08 00:12 | 41.26133 | 68.17852 | 36939 ft | 484 kts | 101° |
| 2026-04-08 00:13 | 41.25338 | 68.26795 | 36936 ft | 484 kts | 101° |
| 2026-04-08 00:13 | 41.24533 | 68.35676 | 36934 ft | 484 kts | 101° |
| 2026-04-08 00:14 | 41.23729 | 68.44489 | 36919 ft | 484 kts | 101° |
| 2026-04-08 00:14 | 41.22914 | 68.53355 | 36920 ft | 483 kts | 101° |
| 2026-04-08 00:15 | 41.22092 | 68.62215 | 36931 ft | 482 kts | 101° |
| 2026-04-08 00:15 | 41.21266 | 68.71053 | 36933 ft | 482 kts | 101° |
| 2026-04-08 00:16 | 41.20434 | 68.79883 | 36940 ft | 482 kts | 101° |
| 2026-04-08 00:16 | 41.19596 | 68.88712 | 36921 ft | 481 kts | 101° |
| 2026-04-08 00:17 | 41.19086 | 68.97588 | 36943 ft | 484 kts | 96° |
| 2026-04-08 00:17 | 41.18909 | 69.06532 | 36937 ft | 484 kts | 96° |
| 2026-04-08 00:18 | 41.18690 | 69.15460 | 36940 ft | 484 kts | 96° |
| 2026-04-08 00:18 | 41.18374 | 69.24375 | 36931 ft | 482 kts | 100° |
| 2026-04-08 00:19 | 41.17659 | 69.33198 | 36940 ft | 481 kts | 101° |
| 2026-04-08 00:19 | 41.17027 | 69.40521 | 36942 ft | 481 kts | 101° |
| 2026-04-08 00:20 | 41.16278 | 69.49343 | 36942 ft | 481 kts | 101° |
| 2026-04-08 00:20 | 41.15537 | 69.58167 | 36936 ft | 481 kts | 101° |
| 2026-04-08 00:21 | 41.14794 | 69.66994 | 36936 ft | 482 kts | 101° |
| 2026-04-08 00:21 | 41.14043 | 69.75828 | 36940 ft | 482 kts | 101° |
| 2026-04-08 00:22 | 41.13282 | 69.84674 | 36940 ft | 483 kts | 101° |
| 2026-04-08 00:22 | 41.12513 | 69.93538 | 36932 ft | 484 kts | 101° |
| 2026-04-08 00:23 | 41.11735 | 70.02420 | 36941 ft | 485 kts | 101° |
| 2026-04-08 00:23 | 41.10952 | 70.11303 | 36920 ft | 485 kts | 101° |
| 2026-04-08 00:24 | 41.10164 | 70.20179 | 36903 ft | 486 kts | 100° |
| 2026-04-08 00:24 | 41.10064 | 70.29185 | 36906 ft | 492 kts | 88° |
| 2026-04-08 00:25 | 41.10800 | 70.38196 | 36903 ft | 492 kts | 87° |
| 2026-04-08 00:25 | 41.11525 | 70.47210 | 36866 ft | 492 kts | 88° |
| 2026-04-08 00:26 | 41.12193 | 70.56218 | 36849 ft | 490 kts | 88° |
| 2026-04-08 00:26 | 41.12847 | 70.65209 | 36870 ft | 490 kts | 88° |
| 2026-04-08 00:27 | 41.13489 | 70.74160 | 36870 ft | 491 kts | 88° |
| 2026-04-08 00:27 | 41.14114 | 70.83185 | 36849 ft | 491 kts | 88° |
| 2026-04-08 00:28 | 41.14726 | 70.92204 | 36833 ft | 491 kts | 88° |
| 2026-04-08 00:28 | 41.15334 | 71.01219 | 36853 ft | 490 kts | 88° |
| 2026-04-08 00:29 | 41.15934 | 71.10236 | 36857 ft | 490 kts | 88° |
| 2026-04-08 00:29 | 41.16529 | 71.19249 | 36856 ft | 491 kts | 88° |
| 2026-04-08 00:30 | 41.17118 | 71.28289 | 36868 ft | 491 kts | 88° |
| 2026-04-08 00:30 | 41.17699 | 71.37325 | 36878 ft | 491 kts | 88° |
| 2026-04-08 00:31 | 41.18274 | 71.46366 | 36872 ft | 491 kts | 88° |
| 2026-04-08 00:31 | 41.18840 | 71.55395 | 36882 ft | 491 kts | 89° |
| 2026-04-08 00:32 | 41.19401 | 71.64451 | 36874 ft | 491 kts | 88° |
| 2026-04-08 00:32 | 41.19956 | 71.73497 | 36880 ft | 492 kts | 88° |
| 2026-04-08 00:33 | 41.20501 | 71.82543 | 36880 ft | 492 kts | 89° |
| 2026-04-08 00:33 | 41.21028 | 71.91597 | 36874 ft | 492 kts | 88° |
| 2026-04-08 00:34 | 41.21548 | 72.00647 | 36881 ft | 492 kts | 88° |
| 2026-04-08 00:34 | 41.22062 | 72.09700 | 36883 ft | 491 kts | 89° |
| 2026-04-08 00:35 | 41.22567 | 72.18691 | 36887 ft | 491 kts | 89° |
| 2026-04-08 00:35 | 41.23078 | 72.27737 | 36881 ft | 491 kts | 88° |
| 2026-04-08 00:36 | 41.23604 | 72.36834 | 36891 ft | 490 kts | 88° |
| 2026-04-08 00:36 | 41.24112 | 72.45793 | 36892 ft | 490 kts | 88° |
| 2026-04-08 00:37 | 41.24615 | 72.54813 | 36894 ft | 489 kts | 88° |
| 2026-04-08 00:37 | 41.25108 | 72.63829 | 36888 ft | 489 kts | 88° |
| 2026-04-08 00:38 | 41.25579 | 72.72834 | 36886 ft | 488 kts | 88° |
| 2026-04-08 00:38 | 41.26040 | 72.81823 | 36884 ft | 488 kts | 88° |
| 2026-04-08 00:39 | 41.26497 | 72.90814 | 36881 ft | 487 kts | 88° |
| 2026-04-08 00:39 | 41.26943 | 72.99790 | 36876 ft | 486 kts | 88° |
| 2026-04-08 00:40 | 41.27387 | 73.08735 | 36877 ft | 484 kts | 88° |
| 2026-04-08 00:40 | 41.27820 | 73.17652 | 36890 ft | 483 kts | 88° |
| 2026-04-08 00:41 | 41.28245 | 73.26547 | 36882 ft | 482 kts | 88° |
| 2026-04-08 00:41 | 41.28662 | 73.35441 | 36892 ft | 481 kts | 88° |
| 2026-04-08 00:42 | 41.29071 | 73.44316 | 36866 ft | 481 kts | 89° |
| 2026-04-08 00:42 | 41.29475 | 73.53184 | 36875 ft | 480 kts | 89° |
| 2026-04-08 00:43 | 41.29868 | 73.61977 | 36862 ft | 479 kts | 89° |
| 2026-04-08 00:43 | 41.30253 | 73.70815 | 36861 ft | 479 kts | 89° |
| 2026-04-08 00:44 | 41.30640 | 73.79743 | 36849 ft | 480 kts | 89° |
| 2026-04-08 00:44 | 41.31013 | 73.88555 | 36840 ft | 481 kts | 89° |
| 2026-04-08 00:45 | 41.31383 | 73.97437 | 36851 ft | 481 kts | 89° |
| 2026-04-08 00:45 | 41.31838 | 74.06321 | 36836 ft | 482 kts | 86° |
| 2026-04-08 00:46 | 41.32432 | 74.14098 | 36840 ft | 483 kts | 86° |
| 2026-04-08 00:46 | 41.33118 | 74.23000 | 36833 ft | 484 kts | 86° |
| 2026-04-08 00:47 | 41.33761 | 74.31911 | 36834 ft | 485 kts | 86° |
| 2026-04-08 00:47 | 41.34382 | 74.40856 | 36812 ft | 485 kts | 86° |
| 2026-04-08 00:48 | 41.34993 | 74.49788 | 36832 ft | 484 kts | 86° |
| 2026-04-08 00:48 | 41.35601 | 74.58724 | 36813 ft | 484 kts | 86° |
| 2026-04-08 00:49 | 41.36203 | 74.67635 | 36821 ft | 483 kts | 86° |
| 2026-04-08 00:49 | 41.36791 | 74.76481 | 36819 ft | 483 kts | 86° |
| 2026-04-08 00:50 | 41.37376 | 74.85388 | 36814 ft | 482 kts | 86° |
| 2026-04-08 00:50 | 41.37959 | 74.94344 | 36816 ft | 482 kts | 86° |
| 2026-04-08 00:51 | 41.38527 | 75.03172 | 36814 ft | 482 kts | 86° |
| 2026-04-08 00:51 | 41.39093 | 75.12055 | 36805 ft | 481 kts | 86° |
| 2026-04-08 00:52 | 41.39651 | 75.20930 | 36817 ft | 481 kts | 86° |
| 2026-04-08 00:52 | 41.40204 | 75.29813 | 36811 ft | 481 kts | 86° |
| 2026-04-08 00:53 | 41.40749 | 75.38706 | 36805 ft | 482 kts | 86° |
| 2026-04-08 00:53 | 41.41289 | 75.47609 | 36801 ft | 482 kts | 86° |
| 2026-04-08 00:54 | 41.41821 | 75.56519 | 36802 ft | 482 kts | 86° |
| 2026-04-08 00:54 | 41.42348 | 75.65436 | 36787 ft | 483 kts | 86° |
| 2026-04-08 00:55 | 41.42868 | 75.74354 | 36791 ft | 483 kts | 86° |
| 2026-04-08 00:55 | 41.43383 | 75.83283 | 36777 ft | 483 kts | 86° |
| 2026-04-08 00:56 | 41.43893 | 75.92210 | 36784 ft | 483 kts | 86° |
| 2026-04-08 00:56 | 41.44395 | 76.01149 | 36776 ft | 483 kts | 86° |
| 2026-04-08 00:57 | 41.44892 | 76.10077 | 36790 ft | 483 kts | 86° |
| 2026-04-08 00:57 | 41.45382 | 76.19014 | 36780 ft | 483 kts | 86° |
| 2026-04-08 00:58 | 41.45861 | 76.27897 | 36791 ft | 483 kts | 86° |
| 2026-04-08 00:58 | 41.46336 | 76.36832 | 36803 ft | 483 kts | 86° |
| 2026-04-08 00:59 | 41.46805 | 76.45776 | 36806 ft | 483 kts | 86° |
| 2026-04-08 00:59 | 41.47266 | 76.54706 | 36810 ft | 484 kts | 86° |
| 2026-04-08 01:00 | 41.47720 | 76.63634 | 36895 ft | 482 kts | 86° |
| 2026-04-08 01:00 | 41.48168 | 76.72581 | 36919 ft | 483 kts | 86° |
| 2026-04-08 01:01 | 41.48609 | 76.81531 | 36940 ft | 485 kts | 86° |
| 2026-04-08 01:01 | 41.49044 | 76.90511 | 36940 ft | 486 kts | 86° |
| 2026-04-08 01:02 | 41.49473 | 76.99505 | 36950 ft | 486 kts | 86° |
| 2026-04-08 01:02 | 41.49896 | 77.08521 | 36962 ft | 487 kts | 86° |
| 2026-04-08 01:03 | 41.50309 | 77.17466 | 36955 ft | 487 kts | 86° |
| 2026-04-08 01:04 | 41.50922 | 77.31038 | 36964 ft | 486 kts | 86° |
| 2026-04-08 01:04 | 41.51319 | 77.40019 | 36965 ft | 485 kts | 86° |
| 2026-04-08 01:05 | 41.51708 | 77.48982 | 36966 ft | 484 kts | 86° |
| 2026-04-08 01:05 | 41.52089 | 77.57935 | 36989 ft | 483 kts | 86° |
| 2026-04-08 01:06 | 41.52464 | 77.66886 | 36982 ft | 483 kts | 86° |
| 2026-04-08 01:06 | 41.52832 | 77.75853 | 36979 ft | 484 kts | 86° |
| 2026-04-08 01:07 | 41.53133 | 77.83304 | 36987 ft | 485 kts | 86° |
| 2026-04-08 01:07 | 41.53547 | 77.93776 | 36982 ft | 486 kts | 86° |
| 2026-04-08 01:08 | 41.53896 | 78.02788 | 36987 ft | 487 kts | 86° |
| 2026-04-08 01:08 | 41.54184 | 78.10352 | 36985 ft | 487 kts | 86° |
| 2026-04-08 01:09 | 41.54520 | 78.19380 | 36987 ft | 486 kts | 86° |
| 2026-04-08 01:09 | 41.54849 | 78.28402 | 36989 ft | 486 kts | 86° |
| 2026-04-08 01:10 | 41.55168 | 78.37353 | 36990 ft | 486 kts | 86° |
| 2026-04-08 01:10 | 41.55483 | 78.46368 | 36988 ft | 486 kts | 86° |
| 2026-04-08 01:11 | 41.55791 | 78.55379 | 36993 ft | 486 kts | 86° |
| 2026-04-08 01:11 | 41.56093 | 78.64444 | 36987 ft | 486 kts | 86° |
| 2026-04-08 01:12 | 41.56387 | 78.73396 | 36980 ft | 485 kts | 86° |
| 2026-04-08 01:12 | 41.56416 | 78.82392 | 36966 ft | 486 kts | 94° |
| 2026-04-08 01:13 | 41.55228 | 78.91262 | 36946 ft | 486 kts | 104° |
| 2026-04-08 01:13 | 41.53451 | 78.99946 | 36932 ft | 485 kts | 105° |
| 2026-04-08 01:14 | 41.51676 | 79.08625 | 36936 ft | 486 kts | 104° |
| 2026-04-08 01:14 | 41.49921 | 79.17334 | 36896 ft | 486 kts | 104° |
| 2026-04-08 01:15 | 41.48172 | 79.26052 | 36895 ft | 487 kts | 104° |
| 2026-04-08 01:15 | 41.46415 | 79.34782 | 36873 ft | 488 kts | 104° |
| 2026-04-08 01:16 | 41.44649 | 79.43510 | 36858 ft | 488 kts | 104° |
| 2026-04-08 01:16 | 41.42869 | 79.52259 | 36856 ft | 489 kts | 104° |
| 2026-04-08 01:17 | 41.41082 | 79.61009 | 36848 ft | 490 kts | 104° |
| 2026-04-08 01:17 | 41.39288 | 79.69757 | 36840 ft | 490 kts | 104° |
| 2026-04-08 01:18 | 41.37486 | 79.78504 | 36839 ft | 490 kts | 104° |
| 2026-04-08 01:18 | 41.35677 | 79.87254 | 36842 ft | 490 kts | 105° |
| 2026-04-08 01:19 | 41.33870 | 79.95953 | 36845 ft | 490 kts | 105° |
| 2026-04-08 01:19 | 41.32048 | 80.04691 | 36834 ft | 490 kts | 105° |
| 2026-04-08 01:20 | 41.30205 | 80.13494 | 36836 ft | 491 kts | 105° |
| 2026-04-08 01:20 | 41.28380 | 80.22175 | 36834 ft | 492 kts | 105° |
| 2026-04-08 01:21 | 41.26531 | 80.30934 | 36838 ft | 492 kts | 105° |
| 2026-04-08 01:21 | 41.24665 | 80.39692 | 36834 ft | 493 kts | 105° |
| 2026-04-08 01:22 | 41.22781 | 80.48441 | 36832 ft | 493 kts | 105° |
| 2026-04-08 01:22 | 41.20888 | 80.57211 | 36846 ft | 494 kts | 105° |
| 2026-04-08 01:23 | 41.18989 | 80.65977 | 36833 ft | 494 kts | 105° |
| 2026-04-08 01:23 | 41.17084 | 80.74742 | 36826 ft | 494 kts | 105° |
| 2026-04-08 01:24 | 41.15172 | 80.83505 | 36837 ft | 495 kts | 105° |
| 2026-04-08 01:24 | 41.13249 | 80.92283 | 36838 ft | 495 kts | 106° |
| 2026-04-08 01:25 | 41.11317 | 81.01065 | 36832 ft | 496 kts | 106° |
| 2026-04-08 01:25 | 41.09376 | 81.09852 | 36831 ft | 496 kts | 106° |
| 2026-04-08 01:26 | 41.07429 | 81.18628 | 36832 ft | 497 kts | 106° |
| 2026-04-08 01:26 | 41.05476 | 81.27402 | 36831 ft | 496 kts | 106° |
| 2026-04-08 01:27 | 41.03515 | 81.36173 | 36831 ft | 496 kts | 106° |
| 2026-04-08 01:27 | 41.01560 | 81.44881 | 36831 ft | 497 kts | 106° |
| 2026-04-08 01:28 | 40.99586 | 81.53645 | 36835 ft | 497 kts | 106° |
| 2026-04-08 01:28 | 40.97606 | 81.62407 | 36834 ft | 497 kts | 106° |
| 2026-04-08 01:29 | 40.95679 | 81.71195 | 36834 ft | 497 kts | 104° |
| 2026-04-08 01:29 | 40.94019 | 81.80074 | 36834 ft | 497 kts | 103° |
| 2026-04-08 01:30 | 40.92398 | 81.88969 | 36835 ft | 498 kts | 103° |
| 2026-04-08 01:30 | 40.90732 | 81.97851 | 36836 ft | 498 kts | 103° |
| 2026-04-08 01:31 | 40.89035 | 82.06719 | 36837 ft | 498 kts | 104° |
| 2026-04-08 01:31 | 40.87324 | 82.15582 | 36833 ft | 498 kts | 104° |
| 2026-04-08 01:32 | 40.85608 | 82.24442 | 36834 ft | 498 kts | 104° |
| 2026-04-08 01:32 | 40.83887 | 82.33298 | 36834 ft | 498 kts | 104° |
| 2026-04-08 01:33 | 40.82161 | 82.42145 | 36837 ft | 497 kts | 104° |
| 2026-04-08 01:33 | 40.80428 | 82.50989 | 36833 ft | 497 kts | 104° |
| 2026-04-08 01:34 | 40.78690 | 82.59818 | 36833 ft | 497 kts | 104° |
| 2026-04-08 01:34 | 40.76942 | 82.68657 | 36840 ft | 497 kts | 104° |
| 2026-04-08 01:35 | 40.75189 | 82.77481 | 36835 ft | 497 kts | 104° |
| 2026-04-08 01:35 | 40.73443 | 82.86237 | 36840 ft | 497 kts | 104° |
| 2026-04-08 01:36 | 40.71677 | 82.95053 | 36836 ft | 497 kts | 104° |
| 2026-04-08 01:36 | 40.69902 | 83.03871 | 36836 ft | 498 kts | 104° |
| 2026-04-08 01:37 | 40.68121 | 83.12688 | 36837 ft | 498 kts | 104° |
| 2026-04-08 01:37 | 40.66331 | 83.21506 | 36837 ft | 499 kts | 104° |
| 2026-04-08 01:38 | 40.64535 | 83.30320 | 36833 ft | 499 kts | 104° |
| 2026-04-08 01:38 | 40.62727 | 83.39154 | 36833 ft | 500 kts | 104° |
| 2026-04-08 01:39 | 40.60912 | 83.47985 | 36830 ft | 500 kts | 104° |
| 2026-04-08 01:39 | 40.59089 | 83.56818 | 36835 ft | 500 kts | 104° |
| 2026-04-08 01:40 | 40.57262 | 83.65630 | 36833 ft | 500 kts | 104° |
| 2026-04-08 01:40 | 40.55423 | 83.74466 | 36827 ft | 500 kts | 105° |
| 2026-04-08 01:41 | 40.53581 | 83.83280 | 36828 ft | 500 kts | 105° |
| 2026-04-08 01:41 | 40.51732 | 83.92095 | 36829 ft | 500 kts | 105° |
| 2026-04-08 01:42 | 40.49914 | 84.00912 | 36830 ft | 500 kts | 104° |
| 2026-04-08 01:42 | 40.48131 | 84.09755 | 36829 ft | 501 kts | 104° |
| 2026-04-08 01:43 | 40.46342 | 84.18597 | 36827 ft | 501 kts | 104° |
| 2026-04-08 01:43 | 40.44541 | 84.27425 | 36832 ft | 501 kts | 104° |
| 2026-04-08 01:44 | 40.42727 | 84.36256 | 36832 ft | 501 kts | 104° |
| 2026-04-08 01:44 | 40.40905 | 84.45086 | 36830 ft | 501 kts | 104° |
| 2026-04-08 01:45 | 40.39076 | 84.53916 | 36829 ft | 502 kts | 105° |
| 2026-04-08 01:45 | 40.37239 | 84.62745 | 36827 ft | 502 kts | 105° |
| 2026-04-08 01:46 | 40.35396 | 84.71571 | 36822 ft | 502 kts | 105° |
| 2026-04-08 01:46 | 40.33546 | 84.80392 | 36829 ft | 502 kts | 105° |
| 2026-04-08 01:47 | 40.31686 | 84.89225 | 36830 ft | 503 kts | 105° |
| 2026-04-08 01:47 | 40.29819 | 84.98053 | 36828 ft | 503 kts | 105° |
| 2026-04-08 01:48 | 40.27945 | 85.06880 | 36827 ft | 503 kts | 105° |
| 2026-04-08 01:48 | 40.26063 | 85.15702 | 36827 ft | 503 kts | 105° |
| 2026-04-08 01:49 | 40.24172 | 85.24536 | 36830 ft | 504 kts | 105° |
| 2026-04-08 01:49 | 40.22275 | 85.33357 | 36832 ft | 503 kts | 105° |
| 2026-04-08 01:50 | 40.20385 | 85.42116 | 36829 ft | 503 kts | 105° |
| 2026-04-08 01:50 | 40.18475 | 85.50927 | 36833 ft | 503 kts | 105° |
| 2026-04-08 01:51 | 40.16561 | 85.59722 | 36832 ft | 503 kts | 105° |
| 2026-04-08 01:51 | 40.14642 | 85.68504 | 36836 ft | 503 kts | 106° |
| 2026-04-08 01:52 | 40.12717 | 85.77283 | 36830 ft | 503 kts | 106° |
| 2026-04-08 01:52 | 40.10784 | 85.86062 | 36830 ft | 502 kts | 106° |
| 2026-04-08 01:53 | 40.08848 | 85.94821 | 36832 ft | 502 kts | 106° |
| 2026-04-08 01:53 | 40.06801 | 86.03537 | 36833 ft | 502 kts | 109° |
| 2026-04-08 01:54 | 40.04868 | 86.10678 | 36833 ft | 502 kts | 110° |
| 2026-04-08 01:54 | 40.02500 | 86.19217 | 36825 ft | 492 kts | 110° |
| 2026-04-08 01:55 | 40.00212 | 86.27508 | 36827 ft | 480 kts | 110° |
| 2026-04-08 01:55 | 39.97984 | 86.35621 | 36827 ft | 471 kts | 110° |
| 2026-04-08 01:56 | 39.95798 | 86.43583 | 36829 ft | 462 kts | 110° |
| 2026-04-08 01:56 | 39.93642 | 86.51410 | 36831 ft | 455 kts | 110° |
| 2026-04-08 01:57 | 39.91512 | 86.59113 | 36844 ft | 449 kts | 110° |
| 2026-04-08 01:57 | 39.89401 | 86.66726 | 36832 ft | 444 kts | 110° |
| 2026-04-08 01:58 | 39.87308 | 86.74249 | 36829 ft | 439 kts | 110° |
| 2026-04-08 01:58 | 39.85233 | 86.81685 | 36828 ft | 435 kts | 110° |
| 2026-04-08 01:59 | 39.83173 | 86.89049 | 36831 ft | 431 kts | 110° |
| 2026-04-08 01:59 | 39.81124 | 86.96353 | 36835 ft | 428 kts | 110° |
| 2026-04-08 02:00 | 39.79088 | 87.03589 | 36832 ft | 425 kts | 110° |
| 2026-04-08 02:00 | 39.77059 | 87.10778 | 36839 ft | 422 kts | 110° |
| 2026-04-08 02:01 | 39.74052 | 87.21400 | 36836 ft | 417 kts | 111° |
| 2026-04-08 02:01 | 39.72050 | 87.28445 | 36830 ft | 414 kts | 111° |
| 2026-04-08 02:02 | 39.70059 | 87.35435 | 36832 ft | 411 kts | 111° |
| 2026-04-08 02:02 | 39.68078 | 87.42372 | 36838 ft | 411 kts | 111° |
| 2026-04-08 02:03 | 39.66051 | 87.49446 | 36853 ft | 426 kts | 111° |
| 2026-04-08 02:03 | 39.63939 | 87.56796 | 36855 ft | 443 kts | 111° |
| 2026-04-08 02:04 | 39.61745 | 87.64415 | 36848 ft | 459 kts | 111° |
| 2026-04-08 02:04 | 39.59471 | 87.72286 | 36855 ft | 474 kts | 111° |
| 2026-04-08 02:05 | 39.57119 | 87.80404 | 36853 ft | 488 kts | 111° |
| 2026-04-08 02:05 | 39.54701 | 87.88726 | 36846 ft | 499 kts | 111° |
| 2026-04-08 02:06 | 39.52226 | 87.97216 | 36845 ft | 508 kts | 111° |
| 2026-04-08 02:06 | 39.49715 | 88.05803 | 36846 ft | 511 kts | 111° |
| 2026-04-08 02:07 | 39.47186 | 88.14420 | 36839 ft | 512 kts | 111° |
| 2026-04-08 02:07 | 39.44654 | 88.23024 | 36838 ft | 511 kts | 111° |
| 2026-04-08 02:08 | 39.42124 | 88.31590 | 36837 ft | 508 kts | 111° |
| 2026-04-08 02:08 | 39.39602 | 88.40102 | 36834 ft | 506 kts | 111° |
| 2026-04-08 02:09 | 39.37095 | 88.48537 | 36830 ft | 504 kts | 111° |
| 2026-04-08 02:09 | 39.34577 | 88.56982 | 36832 ft | 503 kts | 111° |
| 2026-04-08 02:10 | 39.32054 | 88.65416 | 36826 ft | 503 kts | 112° |
| 2026-04-08 02:10 | 39.29526 | 88.73840 | 36834 ft | 504 kts | 112° |
| 2026-04-08 02:11 | 39.26985 | 88.82282 | 36839 ft | 505 kts | 112° |
| 2026-04-08 02:11 | 39.24432 | 88.90737 | 36832 ft | 507 kts | 112° |
| 2026-04-08 02:12 | 39.21863 | 88.99219 | 36842 ft | 508 kts | 112° |
| 2026-04-08 02:12 | 39.19282 | 89.07715 | 36859 ft | 509 kts | 112° |
| 2026-04-08 02:13 | 39.16689 | 89.16226 | 36856 ft | 510 kts | 112° |
| 2026-04-08 02:13 | 39.14090 | 89.24725 | 36861 ft | 510 kts | 112° |
| 2026-04-08 02:14 | 39.11484 | 89.33223 | 36869 ft | 510 kts | 112° |
| 2026-04-08 02:14 | 39.08869 | 89.41724 | 36898 ft | 511 kts | 112° |
| 2026-04-08 02:15 | 39.06247 | 89.50223 | 36901 ft | 511 kts | 112° |
| 2026-04-08 02:15 | 39.03613 | 89.58730 | 36916 ft | 512 kts | 112° |
| 2026-04-08 02:16 | 39.00970 | 89.67243 | 36948 ft | 513 kts | 112° |
| 2026-04-08 02:16 | 38.98319 | 89.75756 | 36955 ft | 513 kts | 112° |
| 2026-04-08 02:17 | 38.95664 | 89.84257 | 36974 ft | 512 kts | 113° |
| 2026-04-08 02:17 | 38.93002 | 89.92750 | 36989 ft | 512 kts | 113° |
| 2026-04-08 02:18 | 38.90335 | 90.01236 | 36994 ft | 512 kts | 113° |
| 2026-04-08 02:18 | 38.87663 | 90.09712 | 36999 ft | 512 kts | 113° |
| 2026-04-08 02:19 | 38.84984 | 90.18186 | 37012 ft | 512 kts | 113° |
| 2026-04-08 02:19 | 38.82298 | 90.26656 | 37026 ft | 512 kts | 113° |
| 2026-04-08 02:20 | 38.79606 | 90.35120 | 37026 ft | 512 kts | 113° |
| 2026-04-08 02:20 | 38.76898 | 90.43563 | 37023 ft | 512 kts | 113° |
| 2026-04-08 02:21 | 38.74180 | 90.52000 | 37022 ft | 512 kts | 114° |
| 2026-04-08 02:21 | 38.71477 | 90.60376 | 37033 ft | 513 kts | 114° |
| 2026-04-08 02:22 | 38.68747 | 90.68819 | 37023 ft | 513 kts | 114° |
| 2026-04-08 02:22 | 38.66234 | 90.77372 | 37012 ft | 514 kts | 110° |
| 2026-04-08 02:23 | 38.63862 | 90.86010 | 37005 ft | 515 kts | 110° |
| 2026-04-08 02:23 | 38.61477 | 90.94652 | 37011 ft | 516 kts | 111° |
| 2026-04-08 02:24 | 38.59060 | 91.03299 | 37011 ft | 517 kts | 111° |
| 2026-04-08 02:24 | 38.56622 | 91.11960 | 36998 ft | 518 kts | 111° |
| 2026-04-08 02:25 | 38.54175 | 91.20623 | 36996 ft | 519 kts | 111° |
| 2026-04-08 02:25 | 38.51715 | 91.29306 | 36991 ft | 520 kts | 111° |
| 2026-04-08 02:26 | 38.49245 | 91.38002 | 36975 ft | 520 kts | 111° |
| 2026-04-08 02:26 | 38.46770 | 91.46687 | 36987 ft | 520 kts | 111° |
| 2026-04-08 02:27 | 38.44292 | 91.55352 | 36968 ft | 520 kts | 111° |
| 2026-04-08 02:27 | 38.41804 | 91.64022 | 36990 ft | 520 kts | 111° |
| 2026-04-08 02:28 | 38.39313 | 91.72678 | 36984 ft | 520 kts | 112° |
| 2026-04-08 02:28 | 38.36813 | 91.81335 | 36983 ft | 521 kts | 112° |
| 2026-04-08 02:29 | 38.34304 | 91.89992 | 36981 ft | 521 kts | 112° |
| 2026-04-08 02:29 | 38.31805 | 91.98593 | 36978 ft | 522 kts | 112° |
| 2026-04-08 02:30 | 38.29279 | 92.07256 | 36982 ft | 522 kts | 112° |
| 2026-04-08 02:30 | 38.26743 | 92.15925 | 36983 ft | 523 kts | 112° |
| 2026-04-08 02:31 | 38.24199 | 92.24596 | 36989 ft | 523 kts | 112° |
| 2026-04-08 02:31 | 38.21645 | 92.33271 | 36992 ft | 524 kts | 112° |
| 2026-04-08 02:32 | 38.19084 | 92.41950 | 36994 ft | 525 kts | 112° |
| 2026-04-08 02:32 | 38.16490 | 92.50618 | 36990 ft | 524 kts | 115° |
| 2026-04-08 02:33 | 38.13433 | 92.59006 | 36994 ft | 523 kts | 118° |
| 2026-04-08 02:33 | 38.10285 | 92.67332 | 37005 ft | 523 kts | 118° |
| 2026-04-08 02:34 | 38.07145 | 92.75668 | 36992 ft | 524 kts | 118° |
| 2026-04-08 02:34 | 38.04017 | 92.84016 | 36994 ft | 524 kts | 118° |
| 2026-04-08 02:35 | 38.00891 | 92.92361 | 36993 ft | 524 kts | 118° |
| 2026-04-08 02:35 | 37.97752 | 93.00712 | 36994 ft | 524 kts | 118° |
| 2026-04-08 02:36 | 37.94607 | 93.09056 | 36986 ft | 525 kts | 118° |
| 2026-04-08 02:36 | 37.91459 | 93.17380 | 36993 ft | 525 kts | 118° |
| 2026-04-08 02:37 | 37.88299 | 93.25713 | 36984 ft | 524 kts | 118° |
| 2026-04-08 02:37 | 37.85139 | 93.34025 | 36994 ft | 524 kts | 118° |
| 2026-04-08 02:38 | 37.81972 | 93.42331 | 36987 ft | 524 kts | 118° |
| 2026-04-08 02:38 | 37.78806 | 93.50614 | 36984 ft | 524 kts | 118° |
| 2026-04-08 02:39 | 37.76167 | 93.57500 | 36979 ft | 524 kts | 118° |
| 2026-04-08 02:39 | 37.72471 | 93.67119 | 36983 ft | 523 kts | 118° |
| 2026-04-08 02:40 | 37.69288 | 93.75380 | 36984 ft | 523 kts | 118° |
| 2026-04-08 02:40 | 37.66614 | 93.82301 | 36973 ft | 523 kts | 118° |
| 2026-04-08 02:41 | 37.63425 | 93.90537 | 36975 ft | 522 kts | 118° |
| 2026-04-08 02:41 | 37.60233 | 93.98759 | 36983 ft | 521 kts | 118° |
| 2026-04-08 02:42 | 37.57037 | 94.06968 | 36973 ft | 521 kts | 118° |
| 2026-04-08 02:42 | 37.53837 | 94.15167 | 36981 ft | 521 kts | 118° |
| 2026-04-08 02:43 | 37.50656 | 94.23296 | 36977 ft | 521 kts | 118° |
| 2026-04-08 02:43 | 37.47424 | 94.31531 | 36984 ft | 521 kts | 119° |
| 2026-04-08 02:44 | 37.44229 | 94.39653 | 36978 ft | 521 kts | 119° |
| 2026-04-08 02:44 | 37.41008 | 94.47821 | 36977 ft | 521 kts | 119° |
| 2026-04-08 02:45 | 37.37780 | 94.55983 | 36963 ft | 521 kts | 119° |
| 2026-04-08 02:45 | 37.34552 | 94.64125 | 36973 ft | 520 kts | 119° |
| 2026-04-08 02:46 | 37.31322 | 94.72251 | 36971 ft | 520 kts | 119° |
| 2026-04-08 02:46 | 37.28084 | 94.80378 | 36961 ft | 519 kts | 119° |
| 2026-04-08 02:47 | 37.24848 | 94.88476 | 36945 ft | 519 kts | 119° |
| 2026-04-08 02:47 | 37.21622 | 94.96531 | 36949 ft | 519 kts | 119° |
| 2026-04-08 02:48 | 37.18372 | 95.04623 | 36946 ft | 519 kts | 119° |
| 2026-04-08 02:48 | 37.15117 | 95.12709 | 36945 ft | 519 kts | 119° |
| 2026-04-08 02:49 | 37.11856 | 95.20788 | 36921 ft | 520 kts | 120° |
| 2026-04-08 02:49 | 37.08591 | 95.28858 | 36950 ft | 521 kts | 120° |
| 2026-04-08 02:50 | 37.06950 | 95.32904 | 37116 ft | 522 kts | 120° |
| 2026-04-08 02:50 | 37.05304 | 95.36960 | 37404 ft | 521 kts | 120° |
| 2026-04-08 02:50 | 37.03661 | 95.41006 | 37710 ft | 520 kts | 120° |
| 2026-04-08 02:50 | 37.02020 | 95.45041 | 37994 ft | 519 kts | 120° |
| 2026-04-08 02:51 | 37.00381 | 95.49063 | 38232 ft | 520 kts | 120° |
| 2026-04-08 02:51 | 36.98750 | 95.53097 | 38451 ft | 520 kts | 119° |
| 2026-04-08 02:51 | 36.97142 | 95.57160 | 38641 ft | 521 kts | 119° |
| 2026-04-08 02:51 | 36.95550 | 95.61221 | 38816 ft | 521 kts | 118° |
| 2026-04-08 02:52 | 36.92350 | 95.69382 | 38901 ft | 524 kts | 119° |
| 2026-04-08 02:52 | 36.89130 | 95.77540 | 38880 ft | 522 kts | 119° |
| 2026-04-08 02:53 | 36.85921 | 95.85624 | 38923 ft | 519 kts | 119° |
| 2026-04-08 02:53 | 36.82718 | 95.93671 | 38936 ft | 517 kts | 119° |
| 2026-04-08 02:54 | 36.79511 | 96.01716 | 38931 ft | 517 kts | 119° |
| 2026-04-08 02:54 | 36.76308 | 96.09751 | 38925 ft | 518 kts | 119° |
| 2026-04-08 02:55 | 36.73130 | 96.17814 | 38927 ft | 518 kts | 119° |
| 2026-04-08 02:55 | 36.69964 | 96.25843 | 38927 ft | 520 kts | 119° |
| 2026-04-08 02:56 | 36.66743 | 96.33979 | 38915 ft | 521 kts | 119° |
| 2026-04-08 02:56 | 36.63555 | 96.42004 | 38919 ft | 521 kts | 119° |
| 2026-04-08 02:57 | 36.60329 | 96.50105 | 38908 ft | 522 kts | 120° |
| 2026-04-08 02:57 | 36.57101 | 96.58196 | 38909 ft | 522 kts | 120° |
| 2026-04-08 02:58 | 36.53885 | 96.66307 | 38898 ft | 522 kts | 119° |
| 2026-04-08 02:58 | 36.50703 | 96.74413 | 38901 ft | 522 kts | 119° |
| 2026-04-08 02:59 | 36.47515 | 96.82518 | 38900 ft | 522 kts | 119° |
| 2026-04-08 03:00 | 36.42719 | 96.94639 | 38896 ft | 521 kts | 119° |
| 2026-04-08 03:00 | 36.39516 | 97.02703 | 38901 ft | 520 kts | 120° |
| 2026-04-08 03:01 | 36.36316 | 97.10741 | 38906 ft | 520 kts | 120° |
| 2026-04-08 03:01 | 36.33109 | 97.18778 | 38908 ft | 519 kts | 120° |
| 2026-04-08 03:02 | 36.29897 | 97.26805 | 38908 ft | 519 kts | 120° |
| 2026-04-08 03:02 | 36.26683 | 97.34821 | 38914 ft | 519 kts | 120° |
| 2026-04-08 03:03 | 36.23484 | 97.42777 | 38914 ft | 519 kts | 120° |
| 2026-04-08 03:03 | 36.20265 | 97.50767 | 38922 ft | 519 kts | 120° |
| 2026-04-08 03:04 | 36.17040 | 97.58753 | 38920 ft | 519 kts | 120° |
| 2026-04-08 03:04 | 36.13819 | 97.66763 | 38925 ft | 519 kts | 119° |
| 2026-04-08 03:05 | 36.10703 | 97.74820 | 38934 ft | 519 kts | 118° |
| 2026-04-08 03:05 | 36.07610 | 97.82890 | 38932 ft | 519 kts | 118° |
| 2026-04-08 03:06 | 36.04502 | 97.90942 | 38946 ft | 519 kts | 118° |
| 2026-04-08 03:06 | 36.01379 | 97.98974 | 38936 ft | 519 kts | 119° |
| 2026-04-08 03:07 | 35.98247 | 98.07002 | 38958 ft | 519 kts | 119° |
| 2026-04-08 03:07 | 35.95111 | 98.15016 | 38948 ft | 518 kts | 119° |
| 2026-04-08 03:08 | 35.91976 | 98.23020 | 38969 ft | 518 kts | 119° |
| 2026-04-08 03:08 | 35.88833 | 98.31018 | 38972 ft | 518 kts | 119° |
| 2026-04-08 03:09 | 35.85680 | 98.39019 | 38975 ft | 518 kts | 119° |
| 2026-04-08 03:09 | 35.82532 | 98.46999 | 38965 ft | 519 kts | 119° |
| 2026-04-08 03:10 | 35.79365 | 98.54995 | 38985 ft | 519 kts | 119° |
| 2026-04-08 03:10 | 35.76199 | 98.62976 | 38978 ft | 519 kts | 119° |
| 2026-04-08 03:11 | 35.73030 | 98.70944 | 38982 ft | 518 kts | 119° |
| 2026-04-08 03:11 | 35.69855 | 98.78900 | 38995 ft | 518 kts | 120° |
| 2026-04-08 03:12 | 35.66678 | 98.86848 | 38989 ft | 518 kts | 120° |
| 2026-04-08 03:12 | 35.63494 | 98.94792 | 38990 ft | 517 kts | 120° |
| 2026-04-08 03:13 | 35.60333 | 99.02665 | 38993 ft | 517 kts | 120° |
| 2026-04-08 03:13 | 35.57148 | 99.10576 | 38993 ft | 517 kts | 120° |
| 2026-04-08 03:14 | 35.53953 | 99.18491 | 38984 ft | 517 kts | 120° |
| 2026-04-08 03:14 | 35.50754 | 99.26396 | 38974 ft | 517 kts | 120° |
| 2026-04-08 03:15 | 35.47553 | 99.34291 | 38972 ft | 517 kts | 120° |
| 2026-04-08 03:15 | 35.44345 | 99.42178 | 38952 ft | 516 kts | 120° |
| 2026-04-08 03:16 | 35.41135 | 99.50056 | 38946 ft | 517 kts | 120° |
| 2026-04-08 03:16 | 35.37915 | 99.57940 | 38931 ft | 518 kts | 120° |
| 2026-04-08 03:17 | 35.34681 | 99.65839 | 38929 ft | 519 kts | 120° |
| 2026-04-08 03:17 | 35.31432 | 99.73755 | 38905 ft | 520 kts | 121° |
| 2026-04-08 03:18 | 35.28173 | 99.81670 | 38900 ft | 521 kts | 121° |
| 2026-04-08 03:18 | 35.24912 | 99.89565 | 38873 ft | 520 kts | 120° |
| 2026-04-08 03:19 | 35.21651 | 99.97464 | 38894 ft | 519 kts | 120° |
| 2026-04-08 03:19 | 35.18387 | 100.05347 | 38855 ft | 519 kts | 120° |
| 2026-04-08 03:20 | 35.15144 | 100.13156 | 38858 ft | 519 kts | 120° |
| 2026-04-08 03:20 | 35.11872 | 100.21016 | 38837 ft | 519 kts | 120° |
| 2026-04-08 03:21 | 35.08595 | 100.28865 | 38863 ft | 517 kts | 121° |
| 2026-04-08 03:21 | 35.05324 | 100.36676 | 38840 ft | 516 kts | 120° |
| 2026-04-08 03:22 | 35.02121 | 100.44324 | 38853 ft | 515 kts | 120° |
| 2026-04-08 03:22 | 34.98862 | 100.52090 | 38863 ft | 514 kts | 121° |
| 2026-04-08 03:23 | 34.95598 | 100.59826 | 38878 ft | 513 kts | 121° |
| 2026-04-08 03:23 | 34.92327 | 100.67564 | 38875 ft | 514 kts | 121° |
| 2026-04-08 03:24 | 34.89053 | 100.75311 | 38878 ft | 515 kts | 121° |
| 2026-04-08 03:24 | 34.85766 | 100.83062 | 38879 ft | 515 kts | 121° |
| 2026-04-08 03:25 | 34.82469 | 100.90811 | 38866 ft | 516 kts | 121° |
| 2026-04-08 03:25 | 34.79167 | 100.98567 | 38869 ft | 516 kts | 121° |
| 2026-04-08 03:26 | 34.75858 | 101.06317 | 38878 ft | 517 kts | 121° |
| 2026-04-08 03:26 | 34.72559 | 101.14025 | 38864 ft | 516 kts | 121° |
| 2026-04-08 03:27 | 34.69233 | 101.21777 | 38859 ft | 517 kts | 121° |
| 2026-04-08 03:27 | 34.65903 | 101.29521 | 38861 ft | 517 kts | 121° |
| 2026-04-08 03:28 | 34.62564 | 101.37270 | 38857 ft | 518 kts | 121° |
| 2026-04-08 03:28 | 34.59767 | 101.43749 | 38861 ft | 517 kts | 121° |
| 2026-04-08 03:29 | 34.56443 | 101.51428 | 38860 ft | 517 kts | 121° |
| 2026-04-08 03:29 | 34.53097 | 101.59143 | 38865 ft | 516 kts | 121° |
| 2026-04-08 03:30 | 34.49753 | 101.66837 | 38872 ft | 516 kts | 121° |
| 2026-04-08 03:30 | 34.46404 | 101.74523 | 38862 ft | 515 kts | 121° |
| 2026-04-08 03:31 | 34.43054 | 101.82195 | 38870 ft | 515 kts | 121° |
| 2026-04-08 03:31 | 34.39702 | 101.89855 | 38860 ft | 514 kts | 121° |
| 2026-04-08 03:32 | 34.36349 | 101.97501 | 38861 ft | 515 kts | 121° |
| 2026-04-08 03:32 | 34.32985 | 102.05151 | 38843 ft | 514 kts | 122° |
| 2026-04-08 03:33 | 34.29619 | 102.12796 | 38846 ft | 514 kts | 121° |
| 2026-04-08 03:33 | 34.26250 | 102.20428 | 38838 ft | 513 kts | 122° |
| 2026-04-08 03:34 | 34.22886 | 102.28030 | 38843 ft | 514 kts | 122° |
| 2026-04-08 03:34 | 34.19512 | 102.35645 | 38821 ft | 514 kts | 122° |
| 2026-04-08 03:35 | 34.16180 | 102.43294 | 38821 ft | 515 kts | 121° |
| 2026-04-08 03:35 | 34.12915 | 102.50983 | 38816 ft | 515 kts | 121° |
| 2026-04-08 03:36 | 34.09642 | 102.58681 | 38815 ft | 515 kts | 121° |
| 2026-04-08 03:36 | 34.06353 | 102.66358 | 38784 ft | 515 kts | 121° |
| 2026-04-08 03:37 | 34.03053 | 102.74031 | 38796 ft | 515 kts | 121° |
| 2026-04-08 03:37 | 33.99745 | 102.81705 | 38793 ft | 516 kts | 121° |
| 2026-04-08 03:38 | 33.96453 | 102.89327 | 38791 ft | 517 kts | 121° |
| 2026-04-08 03:38 | 33.93126 | 102.97017 | 38778 ft | 517 kts | 121° |
| 2026-04-08 03:39 | 33.89793 | 103.04699 | 38776 ft | 518 kts | 121° |
| 2026-04-08 03:39 | 33.86452 | 103.12384 | 38771 ft | 518 kts | 121° |
| 2026-04-08 03:40 | 33.83109 | 103.20058 | 38792 ft | 518 kts | 121° |
| 2026-04-08 03:40 | 33.79755 | 103.27730 | 38786 ft | 518 kts | 121° |
| 2026-04-08 03:41 | 33.76396 | 103.35403 | 38783 ft | 518 kts | 121° |
| 2026-04-08 03:41 | 33.73043 | 103.43060 | 38758 ft | 518 kts | 122° |
| 2026-04-08 03:42 | 33.69681 | 103.50711 | 38768 ft | 518 kts | 122° |
| 2026-04-08 03:42 | 33.66321 | 103.58330 | 38772 ft | 515 kts | 122° |
| 2026-04-08 03:43 | 33.62970 | 103.65921 | 38766 ft | 514 kts | 122° |
| 2026-04-08 03:43 | 33.59612 | 103.73497 | 38760 ft | 514 kts | 122° |
| 2026-04-08 03:44 | 33.56265 | 103.81074 | 38758 ft | 515 kts | 122° |
| 2026-04-08 03:44 | 33.52901 | 103.88636 | 38753 ft | 514 kts | 122° |
| 2026-04-08 03:45 | 33.49519 | 103.96217 | 38763 ft | 516 kts | 122° |
| 2026-04-08 03:45 | 33.46145 | 104.03795 | 38722 ft | 513 kts | 122° |
| 2026-04-08 03:46 | 33.42782 | 104.11308 | 38792 ft | 514 kts | 122° |
| 2026-04-08 03:46 | 33.39394 | 104.18874 | 38758 ft | 517 kts | 122° |
| 2026-04-08 03:47 | 33.35330 | 104.25808 | 38817 ft | 503 kts | 142° |
| 2026-04-08 03:47 | 33.29696 | 104.30547 | 38794 ft | 489 kts | 161° |
| 2026-04-08 03:48 | 33.23443 | 104.33778 | 38814 ft | 491 kts | 162° |
| 2026-04-08 03:48 | 33.17153 | 104.37055 | 38795 ft | 495 kts | 161° |
| 2026-04-08 03:49 | 33.10908 | 104.40362 | 38793 ft | 494 kts | 161° |
| 2026-04-08 03:49 | 33.04671 | 104.43703 | 38811 ft | 490 kts | 161° |
| 2026-04-08 03:50 | 32.98465 | 104.47016 | 38811 ft | 488 kts | 161° |
| 2026-04-08 03:50 | 32.92280 | 104.50314 | 38820 ft | 486 kts | 161° |
| 2026-04-08 03:51 | 32.86100 | 104.53601 | 38807 ft | 487 kts | 161° |
| 2026-04-08 03:51 | 32.79895 | 104.56835 | 38802 ft | 485 kts | 165° |
| 2026-04-08 03:52 | 32.73449 | 104.58800 | 38811 ft | 474 kts | 177° |
| 2026-04-08 03:52 | 32.66929 | 104.59304 | 38806 ft | 469 kts | 184° |
| 2026-04-08 03:53 | 32.60401 | 104.59512 | 38806 ft | 470 kts | 183° |
| 2026-04-08 03:53 | 32.53857 | 104.59809 | 38796 ft | 471 kts | 183° |
| 2026-04-08 03:54 | 32.47314 | 104.60105 | 38803 ft | 471 kts | 183° |
| 2026-04-08 03:54 | 32.40740 | 104.60399 | 38799 ft | 473 kts | 183° |
| 2026-04-08 03:55 | 32.34200 | 104.60734 | 38798 ft | 474 kts | 182° |
| 2026-04-08 03:55 | 32.27572 | 104.61106 | 38780 ft | 474 kts | 183° |
| 2026-04-08 03:56 | 32.21039 | 104.61466 | 38788 ft | 473 kts | 183° |
| 2026-04-08 03:56 | 32.14500 | 104.61818 | 38803 ft | 468 kts | 183° |
| 2026-04-08 03:57 | 32.07983 | 104.62180 | 38803 ft | 471 kts | 183° |
| 2026-04-08 03:57 | 32.01428 | 104.62539 | 38789 ft | 472 kts | 183° |
| 2026-04-08 03:58 | 31.94860 | 104.62890 | 38783 ft | 472 kts | 184° |
| 2026-04-08 03:58 | 31.88293 | 104.63243 | 38795 ft | 472 kts | 183° |
| 2026-04-08 03:59 | 31.81745 | 104.63597 | 38791 ft | 470 kts | 183° |
| 2026-04-08 03:59 | 31.72001 | 104.64071 | 38776 ft | 470 kts | 185° |
| 2026-04-08 04:00 | 31.65462 | 104.64314 | 38778 ft | 470 kts | 185° |
| 2026-04-08 04:00 | 31.58928 | 104.64561 | 38785 ft | 470 kts | 185° |
| 2026-04-08 04:01 | 31.52390 | 104.64818 | 38772 ft | 470 kts | 185° |
| 2026-04-08 04:01 | 31.45856 | 104.65078 | 38762 ft | 469 kts | 185° |
| 2026-04-08 04:02 | 31.39328 | 104.65338 | 38767 ft | 469 kts | 185° |
| 2026-04-08 04:02 | 31.32813 | 104.65596 | 38769 ft | 468 kts | 185° |
| 2026-04-08 04:03 | 31.26306 | 104.65853 | 38773 ft | 468 kts | 185° |
| 2026-04-08 04:03 | 31.19801 | 104.66110 | 38754 ft | 467 kts | 185° |
| 2026-04-08 04:04 | 31.13297 | 104.66366 | 38762 ft | 467 kts | 185° |
| 2026-04-08 04:04 | 31.06839 | 104.66620 | 38766 ft | 467 kts | 185° |
| 2026-04-08 04:05 | 31.00318 | 104.67164 | 38764 ft | 471 kts | 181° |
| 2026-04-08 04:05 | 30.93791 | 104.67957 | 38748 ft | 472 kts | 182° |
| 2026-04-08 04:06 | 30.87264 | 104.68716 | 38755 ft | 471 kts | 182° |
| 2026-04-08 04:06 | 30.80750 | 104.69453 | 38765 ft | 470 kts | 182° |
| 2026-04-08 04:07 | 30.74235 | 104.70188 | 38761 ft | 470 kts | 182° |
| 2026-04-08 04:07 | 30.67734 | 104.70922 | 38742 ft | 470 kts | 182° |
| 2026-04-08 04:08 | 30.61233 | 104.71656 | 38753 ft | 469 kts | 182° |
| 2026-04-08 04:08 | 30.54742 | 104.72386 | 38760 ft | 468 kts | 182° |
| 2026-04-08 04:09 | 30.48263 | 104.73104 | 38764 ft | 467 kts | 182° |
| 2026-04-08 04:09 | 30.41793 | 104.73816 | 38768 ft | 466 kts | 182° |
| 2026-04-08 04:10 | 30.35379 | 104.74523 | 38770 ft | 466 kts | 182° |
| 2026-04-08 04:10 | 30.28887 | 104.75238 | 38773 ft | 466 kts | 182° |
| 2026-04-08 04:11 | 30.22475 | 104.75944 | 38755 ft | 466 kts | 182° |
| 2026-04-08 04:11 | 30.16028 | 104.76652 | 38760 ft | 466 kts | 182° |
| 2026-04-08 04:12 | 30.09568 | 104.77362 | 38738 ft | 465 kts | 183° |
| 2026-04-08 04:12 | 30.03122 | 104.78069 | 38752 ft | 465 kts | 183° |
| 2026-04-08 04:13 | 29.96685 | 104.78777 | 38760 ft | 465 kts | 183° |
| 2026-04-08 04:13 | 29.90232 | 104.79497 | 38758 ft | 466 kts | 183° |
| 2026-04-08 04:14 | 29.83783 | 104.80217 | 38725 ft | 466 kts | 183° |
| 2026-04-08 04:14 | 29.77347 | 104.80936 | 38743 ft | 463 kts | 183° |
| 2026-04-08 04:15 | 29.72025 | 104.81529 | 38752 ft | 461 kts | 183° |
| 2026-04-08 04:15 | 29.65652 | 104.82237 | 38749 ft | 459 kts | 183° |
| 2026-04-08 04:16 | 29.59309 | 104.82939 | 38750 ft | 457 kts | 183° |
| 2026-04-08 04:16 | 29.52998 | 104.83637 | 38746 ft | 454 kts | 184° |
| 2026-04-08 04:17 | 29.46721 | 104.84331 | 38744 ft | 452 kts | 184° |
| 2026-04-08 04:17 | 29.40466 | 104.85021 | 38746 ft | 450 kts | 184° |
| 2026-04-08 04:18 | 29.34224 | 104.86103 | 38744 ft | 460 kts | 175° |
| 2026-04-08 04:18 | 29.28066 | 104.88396 | 38739 ft | 473 kts | 166° |
| 2026-04-08 04:19 | 29.22051 | 104.91489 | 38734 ft | 474 kts | 166° |
| 2026-04-08 04:19 | 29.16035 | 104.94574 | 38731 ft | 473 kts | 167° |
| 2026-04-08 04:20 | 29.10011 | 104.97604 | 38731 ft | 473 kts | 167° |
| 2026-04-08 04:20 | 29.03995 | 105.00628 | 38727 ft | 473 kts | 167° |
| 2026-04-08 04:21 | 28.97972 | 105.03656 | 38734 ft | 473 kts | 167° |
| 2026-04-08 04:21 | 28.91943 | 105.06684 | 38719 ft | 473 kts | 167° |
| 2026-04-08 04:22 | 28.85975 | 105.09689 | 38720 ft | 473 kts | 167° |
| 2026-04-08 04:22 | 28.79943 | 105.12723 | 38720 ft | 473 kts | 167° |
| 2026-04-08 04:23 | 28.73990 | 105.16029 | 38713 ft | 479 kts | 162° |
| 2026-04-08 04:23 | 28.68104 | 105.19623 | 38708 ft | 480 kts | 162° |
| 2026-04-08 04:24 | 28.62223 | 105.23214 | 38707 ft | 479 kts | 162° |
| 2026-04-08 04:24 | 28.56336 | 105.26779 | 38706 ft | 478 kts | 162° |
| 2026-04-08 04:25 | 28.50470 | 105.30313 | 38700 ft | 477 kts | 163° |
| 2026-04-08 04:25 | 28.44603 | 105.33846 | 38708 ft | 477 kts | 163° |
| 2026-04-08 04:26 | 28.38746 | 105.37368 | 38708 ft | 476 kts | 163° |
| 2026-04-08 04:26 | 28.32901 | 105.40878 | 38695 ft | 475 kts | 163° |
| 2026-04-08 04:27 | 28.27062 | 105.44380 | 38703 ft | 475 kts | 163° |
| 2026-04-08 04:27 | 28.21206 | 105.47888 | 38701 ft | 477 kts | 163° |
| 2026-04-08 04:28 | 28.15317 | 105.51413 | 38701 ft | 479 kts | 163° |
| 2026-04-08 04:28 | 28.09418 | 105.54916 | 38704 ft | 477 kts | 165° |
| 2026-04-08 04:29 | 28.03297 | 105.57442 | 38684 ft | 461 kts | 175° |
| 2026-04-08 04:29 | 27.97142 | 105.58727 | 38707 ft | 448 kts | 182° |
| 2026-04-08 04:30 | 27.90962 | 105.59635 | 38690 ft | 447 kts | 182° |
| 2026-04-08 04:30 | 27.84803 | 105.60633 | 38698 ft | 449 kts | 180° |
| 2026-04-08 04:31 | 27.78692 | 105.62570 | 38694 ft | 463 kts | 170° |
| 2026-04-08 04:31 | 27.72767 | 105.65662 | 38708 ft | 475 kts | 161° |
| 2026-04-08 04:32 | 27.66984 | 105.69277 | 38699 ft | 473 kts | 163° |
| 2026-04-08 04:32 | 27.61117 | 105.72518 | 38730 ft | 468 kts | 166° |
| 2026-04-08 04:33 | 27.55218 | 105.75615 | 38725 ft | 467 kts | 166° |
| 2026-04-08 04:33 | 27.49337 | 105.78741 | 38759 ft | 467 kts | 165° |
| 2026-04-08 04:34 | 27.43459 | 105.81906 | 38754 ft | 469 kts | 165° |
| 2026-04-08 04:34 | 27.37571 | 105.85083 | 38773 ft | 470 kts | 165° |
| 2026-04-08 04:35 | 27.31671 | 105.88260 | 38775 ft | 470 kts | 165° |
| 2026-04-08 04:35 | 27.25774 | 105.91429 | 38773 ft | 470 kts | 165° |
| 2026-04-08 04:36 | 27.19876 | 105.94598 | 38782 ft | 470 kts | 165° |
| 2026-04-08 04:36 | 27.13988 | 105.97758 | 38761 ft | 470 kts | 165° |
| 2026-04-08 04:37 | 27.08101 | 106.00958 | 38769 ft | 474 kts | 161° |
| 2026-04-08 04:37 | 27.05303 | 106.03006 | 38771 ft | 487 kts | 153° |
| 2026-04-08 04:37 | 27.02705 | 106.05503 | 38788 ft | 497 kts | 146° |
| 2026-04-08 04:38 | 27.00354 | 106.08404 | 38815 ft | 510 kts | 138° |
| 2026-04-08 04:38 | 26.98197 | 106.11581 | 38804 ft | 513 kts | 136° |
| 2026-04-08 04:38 | 26.93972 | 106.18030 | 38820 ft | 513 kts | 136° |
| 2026-04-08 04:39 | 26.89722 | 106.24456 | 38819 ft | 512 kts | 137° |
| 2026-04-08 04:39 | 26.85465 | 106.30775 | 38817 ft | 511 kts | 137° |
| 2026-04-08 04:40 | 26.81167 | 106.37114 | 38817 ft | 512 kts | 137° |
| 2026-04-08 04:40 | 26.76851 | 106.43465 | 38838 ft | 514 kts | 137° |
| 2026-04-08 04:41 | 26.72509 | 106.49849 | 38868 ft | 517 kts | 137° |
| 2026-04-08 04:41 | 26.68149 | 106.56260 | 38893 ft | 519 kts | 137° |
| 2026-04-08 04:42 | 26.63771 | 106.62692 | 38893 ft | 521 kts | 137° |
| 2026-04-08 04:42 | 26.59373 | 106.69145 | 38897 ft | 522 kts | 137° |
| 2026-04-08 04:43 | 26.54978 | 106.75580 | 38902 ft | 521 kts | 137° |
| 2026-04-08 04:43 | 26.50394 | 106.81762 | 38900 ft | 509 kts | 145° |
| 2026-04-08 04:44 | 26.45346 | 106.87253 | 38852 ft | 506 kts | 146° |
| 2026-04-08 04:44 | 26.40426 | 106.92580 | 38901 ft | 506 kts | 145° |
| 2026-04-08 04:45 | 26.35407 | 106.98089 | 38897 ft | 506 kts | 145° |
| 2026-04-08 04:45 | 26.30390 | 107.03616 | 38917 ft | 507 kts | 145° |
| 2026-04-08 04:46 | 26.25351 | 107.09144 | 38910 ft | 509 kts | 145° |
| 2026-04-08 04:46 | 26.20298 | 107.14684 | 38911 ft | 510 kts | 145° |
| 2026-04-08 04:47 | 26.15244 | 107.20226 | 38914 ft | 511 kts | 145° |
| 2026-04-08 04:47 | 26.10188 | 107.25764 | 38889 ft | 509 kts | 144° |
| 2026-04-08 04:48 | 26.05133 | 107.31294 | 38916 ft | 510 kts | 144° |
| 2026-04-08 04:48 | 26.00071 | 107.36820 | 38921 ft | 510 kts | 144° |
| 2026-04-08 04:49 | 25.95003 | 107.42345 | 38905 ft | 510 kts | 144° |
| 2026-04-08 04:49 | 25.89968 | 107.47835 | 38912 ft | 511 kts | 144° |
| 2026-04-08 04:50 | 25.84892 | 107.53359 | 38908 ft | 511 kts | 144° |
| 2026-04-08 04:50 | 25.79782 | 107.58912 | 38904 ft | 511 kts | 144° |
| 2026-04-08 04:51 | 25.74732 | 107.64394 | 38906 ft | 511 kts | 144° |
| 2026-04-08 04:51 | 25.69646 | 107.69913 | 38911 ft | 512 kts | 144° |
| 2026-04-08 04:52 | 25.64579 | 107.75460 | 38922 ft | 513 kts | 144° |
| 2026-04-08 04:52 | 25.59499 | 107.81025 | 38922 ft | 514 kts | 144° |
| 2026-04-08 04:53 | 25.54401 | 107.86595 | 38924 ft | 516 kts | 144° |
| 2026-04-08 04:53 | 25.49274 | 107.92150 | 38923 ft | 512 kts | 147° |
| 2026-04-08 04:54 | 25.46455 | 107.94435 | 38924 ft | 495 kts | 160° |
| 2026-04-08 04:54 | 25.43390 | 107.96024 | 38907 ft | 481 kts | 169° |
| 2026-04-08 04:54 | 25.40221 | 107.97047 | 38916 ft | 469 kts | 179° |
| 2026-04-08 04:54 | 25.37027 | 107.97471 | 38942 ft | 460 kts | 184° |
| 2026-04-08 04:55 | 25.30601 | 107.98151 | 38931 ft | 470 kts | 183° |
| 2026-04-08 04:55 | 25.24059 | 107.98923 | 38931 ft | 474 kts | 182° |
| 2026-04-08 04:56 | 25.17489 | 107.99731 | 38921 ft | 475 kts | 182° |
| 2026-04-08 04:56 | 25.10962 | 108.00539 | 38894 ft | 468 kts | 182° |
| 2026-04-08 04:57 | 25.04511 | 108.01337 | 38899 ft | 466 kts | 182° |
| 2026-04-08 04:57 | 24.98075 | 108.02120 | 38915 ft | 465 kts | 182° |
| 2026-04-08 04:58 | 24.91644 | 108.02901 | 38901 ft | 465 kts | 182° |
| 2026-04-08 04:58 | 24.85209 | 108.03683 | 38889 ft | 466 kts | 182° |
| 2026-04-08 04:59 | 24.78756 | 108.04480 | 38878 ft | 467 kts | 182° |
| 2026-04-08 04:59 | 24.72343 | 108.05256 | 38896 ft | 467 kts | 182° |
| 2026-04-08 05:00 | 24.62633 | 108.06435 | 38905 ft | 469 kts | 182° |
| 2026-04-08 05:01 | 24.56142 | 108.07232 | 38893 ft | 469 kts | 182° |
| 2026-04-08 05:01 | 24.49644 | 108.08015 | 38883 ft | 470 kts | 181° |
| 2026-04-08 05:02 | 24.43128 | 108.08804 | 38890 ft | 471 kts | 181° |
| 2026-04-08 05:02 | 24.36606 | 108.09598 | 38904 ft | 473 kts | 181° |
| 2026-04-08 05:03 | 24.30054 | 108.10397 | 38898 ft | 474 kts | 182° |
| 2026-04-08 05:03 | 24.23504 | 108.11192 | 38909 ft | 474 kts | 181° |
| 2026-04-08 05:04 | 24.16946 | 108.11991 | 38903 ft | 473 kts | 181° |
| 2026-04-08 05:04 | 24.10438 | 108.12777 | 38920 ft | 473 kts | 181° |
| 2026-04-08 05:05 | 24.03907 | 108.13568 | 38920 ft | 472 kts | 182° |
| 2026-04-08 05:05 | 23.97385 | 108.14357 | 38915 ft | 471 kts | 182° |
| 2026-04-08 05:06 | 23.91935 | 108.15022 | 38902 ft | 470 kts | 179° |
| 2026-04-08 05:06 | 23.88762 | 108.15946 | 38916 ft | 490 kts | 163° |
| 2026-04-08 05:06 | 23.85798 | 108.17917 | 38914 ft | 512 kts | 146° |
| 2026-04-08 05:06 | 23.83360 | 108.20838 | 38896 ft | 530 kts | 128° |
| 2026-04-08 05:07 | 23.81714 | 108.24478 | 38936 ft | 542 kts | 111° |
| 2026-04-08 05:07 | 23.81025 | 108.28540 | 38920 ft | 546 kts | 96° |
| 2026-04-08 05:07 | 23.80824 | 108.32684 | 38920 ft | 547 kts | 94° |
| 2026-04-08 05:08 | 23.80591 | 108.41004 | 38910 ft | 550 kts | 94° |
| 2026-04-08 05:08 | 23.80238 | 108.49341 | 38921 ft | 549 kts | 95° |
| 2026-04-08 05:09 | 23.79759 | 108.57652 | 38916 ft | 548 kts | 96° |
| 2026-04-08 05:09 | 23.79252 | 108.65954 | 38912 ft | 547 kts | 95° |
| 2026-04-08 05:10 | 23.78757 | 108.74219 | 38924 ft | 544 kts | 96° |
| 2026-04-08 05:10 | 23.78265 | 108.82458 | 38914 ft | 543 kts | 95° |
| 2026-04-08 05:11 | 23.77772 | 108.90671 | 38914 ft | 542 kts | 96° |
| 2026-04-08 05:11 | 23.77275 | 108.98865 | 38924 ft | 541 kts | 96° |
| 2026-04-08 05:12 | 23.76773 | 109.07058 | 38918 ft | 540 kts | 96° |
| 2026-04-08 05:12 | 23.76178 | 109.15214 | 38923 ft | 538 kts | 100° |
| 2026-04-08 05:13 | 23.74700 | 109.23175 | 38927 ft | 535 kts | 106° |
| 2026-04-08 05:13 | 23.73021 | 109.31094 | 38919 ft | 536 kts | 106° |
| 2026-04-08 05:14 | 23.71389 | 109.39031 | 38916 ft | 537 kts | 105° |
| 2026-04-08 05:14 | 23.69782 | 109.47000 | 38911 ft | 538 kts | 105° |
| 2026-04-08 05:15 | 23.68170 | 109.54968 | 38925 ft | 538 kts | 105° |
| 2026-04-08 05:15 | 23.66549 | 109.62931 | 38917 ft | 538 kts | 105° |
| 2026-04-08 05:16 | 23.64913 | 109.70894 | 38936 ft | 538 kts | 105° |
| 2026-04-08 05:16 | 23.63269 | 109.78844 | 38931 ft | 538 kts | 105° |
| 2026-04-08 05:17 | 23.61627 | 109.86792 | 38946 ft | 537 kts | 105° |
| 2026-04-08 05:17 | 23.59985 | 109.94727 | 38955 ft | 537 kts | 105° |
| 2026-04-08 05:18 | 23.58337 | 110.02657 | 38951 ft | 536 kts | 105° |
| 2026-04-08 05:18 | 23.56699 | 110.10521 | 38961 ft | 535 kts | 105° |
| 2026-04-08 05:19 | 23.55047 | 110.18424 | 38961 ft | 534 kts | 105° |
| 2026-04-08 05:19 | 23.53397 | 110.26310 | 38955 ft | 534 kts | 105° |
| 2026-04-08 05:20 | 23.51743 | 110.34193 | 38950 ft | 533 kts | 105° |
| 2026-04-08 05:20 | 23.50108 | 110.42081 | 38944 ft | 533 kts | 105° |
| 2026-04-08 05:21 | 23.48514 | 110.49971 | 38941 ft | 533 kts | 105° |
| 2026-04-08 05:21 | 23.46918 | 110.57840 | 38945 ft | 532 kts | 105° |
| 2026-04-08 05:22 | 23.45306 | 110.65723 | 38941 ft | 532 kts | 105° |
| 2026-04-08 05:22 | 23.43693 | 110.73585 | 38946 ft | 532 kts | 105° |
| 2026-04-08 05:23 | 23.42037 | 110.81434 | 38929 ft | 532 kts | 105° |
| 2026-04-08 05:23 | 23.40366 | 110.89267 | 38943 ft | 531 kts | 105° |
| 2026-04-08 05:24 | 23.38700 | 110.97087 | 38944 ft | 530 kts | 105° |
| 2026-04-08 05:24 | 23.37047 | 111.04849 | 38942 ft | 530 kts | 105° |
| 2026-04-08 05:25 | 23.35382 | 111.12648 | 38946 ft | 529 kts | 105° |
| 2026-04-08 05:25 | 23.33739 | 111.20496 | 38949 ft | 529 kts | 104° |
| 2026-04-08 05:26 | 23.32183 | 111.28260 | 38952 ft | 528 kts | 104° |
| 2026-04-08 05:26 | 23.30612 | 111.36064 | 38954 ft | 528 kts | 104° |
| 2026-04-08 05:27 | 23.29024 | 111.43863 | 38957 ft | 528 kts | 105° |
| 2026-04-08 05:27 | 23.27433 | 111.51657 | 38954 ft | 528 kts | 105° |
| 2026-04-08 05:28 | 23.25801 | 111.59444 | 38971 ft | 528 kts | 105° |
| 2026-04-08 05:28 | 23.24125 | 111.67211 | 38971 ft | 528 kts | 105° |
| 2026-04-08 05:29 | 23.22452 | 111.74995 | 38969 ft | 529 kts | 105° |
| 2026-04-08 05:29 | 23.20783 | 111.82777 | 38979 ft | 529 kts | 105° |
| 2026-04-08 05:30 | 23.19149 | 111.90569 | 38981 ft | 529 kts | 105° |
| 2026-04-08 05:30 | 23.17544 | 111.98366 | 38987 ft | 528 kts | 105° |
| 2026-04-08 05:31 | 23.15929 | 112.06155 | 38993 ft | 528 kts | 105° |
| 2026-04-08 05:31 | 23.14303 | 112.13945 | 38991 ft | 528 kts | 105° |
| 2026-04-08 05:32 | 23.12675 | 112.21722 | 39001 ft | 528 kts | 105° |
| 2026-04-08 05:32 | 23.11044 | 112.29500 | 39000 ft | 528 kts | 105° |
| 2026-04-08 05:33 | 23.09412 | 112.37268 | 39000 ft | 527 kts | 105° |
| 2026-04-08 05:33 | 23.07775 | 112.45027 | 38995 ft | 527 kts | 105° |
| 2026-04-08 05:34 | 23.06602 | 112.52891 | 39008 ft | 528 kts | 96° |
| 2026-04-08 05:34 | 23.06123 | 112.60841 | 39013 ft | 528 kts | 95° |
| 2026-04-08 05:35 | 23.05655 | 112.68755 | 39000 ft | 528 kts | 95° |
| 2026-04-08 05:35 | 23.05133 | 112.76696 | 39012 ft | 527 kts | 96° |
| 2026-04-08 05:36 | 23.04584 | 112.84686 | 39016 ft | 527 kts | 95° |
| 2026-04-08 05:36 | 23.04037 | 112.92613 | 39024 ft | 526 kts | 95° |
| 2026-04-08 05:37 | 23.03493 | 113.00484 | 39017 ft | 526 kts | 96° |
| 2026-04-08 05:37 | 23.02944 | 113.08402 | 39021 ft | 526 kts | 96° |
| 2026-04-08 05:38 | 23.01959 | 113.16218 | 39005 ft | 520 kts | 111° |
| 2026-04-08 05:38 | 23.00504 | 113.19776 | 39027 ft | 514 kts | 123° |
| 2026-04-08 05:38 | 22.98461 | 113.22987 | 39019 ft | 507 kts | 135° |
| 2026-04-08 05:39 | 22.93436 | 113.28158 | 39052 ft | 501 kts | 142° |
| 2026-04-08 05:39 | 22.88275 | 113.33293 | 39036 ft | 504 kts | 141° |
| 2026-04-08 05:40 | 22.83141 | 113.38498 | 39040 ft | 506 kts | 141° |
| 2026-04-08 05:40 | 22.78009 | 113.43748 | 39046 ft | 508 kts | 140° |
| 2026-04-08 05:41 | 22.72872 | 113.49003 | 39042 ft | 508 kts | 140° |
| 2026-04-08 05:41 | 22.67720 | 113.54262 | 39056 ft | 509 kts | 140° |
| 2026-04-08 05:42 | 22.62572 | 113.59508 | 39060 ft | 509 kts | 140° |
| 2026-04-08 05:42 | 22.57417 | 113.64755 | 39050 ft | 508 kts | 140° |
| 2026-04-08 05:43 | 22.52268 | 113.69991 | 39053 ft | 507 kts | 140° |
| 2026-04-08 05:43 | 22.47134 | 113.75206 | 39065 ft | 506 kts | 140° |
| 2026-04-08 05:44 | 22.42010 | 113.80406 | 39067 ft | 504 kts | 140° |
| 2026-04-08 05:44 | 22.37334 | 113.86018 | 39064 ft | 509 kts | 122° |
| 2026-04-08 05:44 | 22.35829 | 113.89494 | 39070 ft | 513 kts | 110° |
| 2026-04-08 05:45 | 22.35001 | 113.93188 | 39066 ft | 515 kts | 97° |
| 2026-04-08 05:45 | 22.34373 | 114.00942 | 39066 ft | 516 kts | 95° |
| 2026-04-08 05:46 | 22.33780 | 114.08705 | 39010 ft | 520 kts | 96° |
| 2026-04-08 05:46 | 22.33118 | 114.16448 | 38978 ft | 522 kts | 96° |
| 2026-04-08 05:47 | 22.32405 | 114.24255 | 38987 ft | 523 kts | 97° |
| 2026-04-08 05:47 | 22.31679 | 114.32067 | 38983 ft | 523 kts | 97° |
| 2026-04-08 05:48 | 22.30953 | 114.39872 | 38996 ft | 522 kts | 97° |
| 2026-04-08 05:48 | 22.30230 | 114.47654 | 38992 ft | 521 kts | 97° |
| 2026-04-08 05:49 | 22.29502 | 114.55443 | 38988 ft | 520 kts | 97° |
| 2026-04-08 05:49 | 22.28774 | 114.63201 | 38996 ft | 519 kts | 97° |
| 2026-04-08 05:50 | 22.28042 | 114.70959 | 38997 ft | 519 kts | 97° |
| 2026-04-08 05:50 | 22.27307 | 114.78701 | 39001 ft | 518 kts | 97° |
| 2026-04-08 05:51 | 22.26569 | 114.86435 | 38998 ft | 518 kts | 97° |
| 2026-04-08 05:51 | 22.25953 | 114.92868 | 38998 ft | 518 kts | 97° |
| 2026-04-08 05:52 | 22.25208 | 115.00604 | 39005 ft | 518 kts | 97° |
| 2026-04-08 05:52 | 22.24459 | 115.08342 | 39002 ft | 519 kts | 97° |
| 2026-04-08 05:53 | 22.23706 | 115.16087 | 39003 ft | 519 kts | 97° |
| 2026-04-08 05:53 | 22.22949 | 115.23837 | 39001 ft | 519 kts | 97° |
| 2026-04-08 05:54 | 22.22188 | 115.31587 | 39006 ft | 520 kts | 97° |
| 2026-04-08 05:54 | 22.21422 | 115.39347 | 39003 ft | 519 kts | 97° |
| 2026-04-08 05:55 | 22.20655 | 115.47090 | 39005 ft | 519 kts | 97° |
| 2026-04-08 05:55 | 22.19884 | 115.54826 | 39012 ft | 518 kts | 97° |
| 2026-04-08 05:56 | 22.19110 | 115.62556 | 39010 ft | 518 kts | 97° |
| 2026-04-08 05:56 | 22.18332 | 115.70289 | 39008 ft | 518 kts | 97° |
| 2026-04-08 05:57 | 22.17165 | 115.81813 | 39012 ft | 517 kts | 97° |
| 2026-04-08 05:57 | 22.16375 | 115.89576 | 39010 ft | 517 kts | 97° |
| 2026-04-08 05:58 | 22.15591 | 115.97230 | 39007 ft | 517 kts | 97° |
| 2026-04-08 05:58 | 22.14795 | 116.04980 | 39011 ft | 516 kts | 97° |
| 2026-04-08 05:59 | 22.14005 | 116.12633 | 39013 ft | 516 kts | 97° |
| 2026-04-08 05:59 | 22.13206 | 116.20328 | 39012 ft | 517 kts | 97° |
| 2026-04-08 06:00 | 22.12405 | 116.28025 | 39016 ft | 517 kts | 97° |
| 2026-04-08 06:00 | 22.11596 | 116.35741 | 39017 ft | 517 kts | 97° |
| 2026-04-08 06:01 | 22.10799 | 116.43328 | 38810 ft | 504 kts | 97° |
| 2026-04-08 06:01 | 22.10404 | 116.47071 | 38498 ft | 502 kts | 97° |
| 2026-04-08 06:01 | 22.10008 | 116.50818 | 38024 ft | 503 kts | 97° |
| 2026-04-08 06:02 | 22.09610 | 116.54569 | 37500 ft | 505 kts | 97° |
| 2026-04-08 06:02 | 22.09209 | 116.58343 | 36979 ft | 507 kts | 97° |
| 2026-04-08 06:02 | 22.08807 | 116.62117 | 36465 ft | 508 kts | 97° |
| 2026-04-08 06:02 | 22.08402 | 116.65912 | 35949 ft | 509 kts | 97° |
| 2026-04-08 06:03 | 22.07996 | 116.69706 | 35423 ft | 510 kts | 97° |
| 2026-04-08 06:03 | 22.07589 | 116.73502 | 34877 ft | 511 kts | 97° |
| 2026-04-08 06:03 | 22.07180 | 116.77316 | 34318 ft | 512 kts | 97° |
| 2026-04-08 06:03 | 22.06769 | 116.81130 | 33680 ft | 513 kts | 97° |
| 2026-04-08 06:04 | 22.06356 | 116.84962 | 32980 ft | 515 kts | 97° |
| 2026-04-08 06:04 | 22.05941 | 116.88796 | 32253 ft | 516 kts | 97° |
| 2026-04-08 06:04 | 22.05523 | 116.92644 | 31565 ft | 517 kts | 97° |
| 2026-04-08 06:04 | 22.05105 | 116.96499 | 31291 ft | 520 kts | 97° |
| 2026-04-08 06:05 | 22.04683 | 117.00373 | 31115 ft | 521 kts | 97° |
| 2026-04-08 06:05 | 22.04260 | 117.04248 | 31007 ft | 520 kts | 97° |
| 2026-04-08 06:05 | 22.03414 | 117.11987 | 31006 ft | 520 kts | 97° |
| 2026-04-08 06:06 | 22.02562 | 117.19739 | 30999 ft | 520 kts | 97° |
| 2026-04-08 06:06 | 22.01707 | 117.27479 | 31002 ft | 520 kts | 97° |
| 2026-04-08 06:07 | 22.00850 | 117.35214 | 31000 ft | 520 kts | 97° |
| 2026-04-08 06:07 | 21.99990 | 117.42940 | 31002 ft | 519 kts | 97° |
| 2026-04-08 06:08 | 21.99834 | 117.46824 | 31002 ft | 519 kts | 86° |
| 2026-04-08 06:08 | 22.00403 | 117.50656 | 31009 ft | 519 kts | 75° |
| 2026-04-08 06:08 | 22.01576 | 117.54320 | 31011 ft | 518 kts | 64° |
| 2026-04-08 06:08 | 22.03327 | 117.57699 | 30998 ft | 515 kts | 56° |
| 2026-04-08 06:09 | 22.07189 | 117.64232 | 31009 ft | 518 kts | 56° |
| 2026-04-08 06:09 | 22.10998 | 117.70826 | 31008 ft | 519 kts | 57° |
| 2026-04-08 06:10 | 22.14754 | 117.77467 | 31009 ft | 518 kts | 57° |
| 2026-04-08 06:10 | 22.18490 | 117.84108 | 31004 ft | 518 kts | 57° |
| 2026-04-08 06:11 | 22.22235 | 117.90760 | 31010 ft | 519 kts | 57° |
| 2026-04-08 06:11 | 22.25981 | 117.97416 | 31006 ft | 519 kts | 57° |
| 2026-04-08 06:12 | 22.29731 | 118.04009 | 31012 ft | 518 kts | 56° |
| 2026-04-08 06:12 | 22.33604 | 118.10578 | 31010 ft | 518 kts | 56° |
| 2026-04-08 06:13 | 22.37487 | 118.17187 | 31019 ft | 518 kts | 56° |
| 2026-04-08 06:13 | 22.41323 | 118.23783 | 31014 ft | 519 kts | 56° |
| 2026-04-08 06:14 | 22.45071 | 118.30403 | 31013 ft | 520 kts | 57° |
| 2026-04-08 06:14 | 22.48831 | 118.37082 | 31006 ft | 520 kts | 57° |
| 2026-04-08 06:15 | 22.52622 | 118.43797 | 31005 ft | 519 kts | 57° |
| 2026-04-08 06:15 | 22.56362 | 118.50419 | 31013 ft | 519 kts | 57° |
| 2026-04-08 06:16 | 22.60138 | 118.57069 | 31013 ft | 519 kts | 56° |
| 2026-04-08 06:16 | 22.63933 | 118.63707 | 31012 ft | 519 kts | 56° |
| 2026-04-08 06:17 | 22.67724 | 118.70350 | 31005 ft | 518 kts | 56° |
| 2026-04-08 06:17 | 22.71506 | 118.76996 | 31014 ft | 518 kts | 56° |
| 2026-04-08 06:18 | 22.75287 | 118.83653 | 31012 ft | 519 kts | 56° |
| 2026-04-08 06:18 | 22.79062 | 118.90308 | 31007 ft | 519 kts | 56° |
| 2026-04-08 06:19 | 22.82843 | 118.96982 | 31012 ft | 520 kts | 56° |
| 2026-04-08 06:19 | 22.86631 | 119.03676 | 31010 ft | 520 kts | 56° |
| 2026-04-08 06:20 | 22.90406 | 119.10356 | 31008 ft | 520 kts | 56° |
| 2026-04-08 06:20 | 22.94182 | 119.17047 | 31005 ft | 520 kts | 56° |
| 2026-04-08 06:21 | 22.97957 | 119.23745 | 31007 ft | 520 kts | 56° |
| 2026-04-08 06:21 | 23.01727 | 119.30443 | 31012 ft | 520 kts | 56° |
| 2026-04-08 06:22 | 23.05472 | 119.37104 | 30998 ft | 521 kts | 56° |
| 2026-04-08 06:22 | 23.09249 | 119.43831 | 30996 ft | 522 kts | 56° |
| 2026-04-08 06:23 | 23.13019 | 119.50557 | 30982 ft | 521 kts | 56° |
| 2026-04-08 06:23 | 23.16814 | 119.57237 | 30983 ft | 516 kts | 52° |
| 2026-04-08 06:24 | 23.19210 | 119.60108 | 30968 ft | 510 kts | 36° |
| 2026-04-08 06:24 | 23.22180 | 119.62118 | 30989 ft | 499 kts | 23° |
| 2026-04-08 06:24 | 23.28384 | 119.65757 | 30984 ft | 511 kts | 26° |
| 2026-04-08 06:25 | 23.34520 | 119.69613 | 30973 ft | 509 kts | 26° |
| 2026-04-08 06:25 | 23.40629 | 119.73501 | 30970 ft | 508 kts | 26° |
| 2026-04-08 06:26 | 23.46730 | 119.77363 | 30979 ft | 508 kts | 26° |
| 2026-04-08 06:26 | 23.52795 | 119.81344 | 30975 ft | 510 kts | 28° |
| 2026-04-08 06:27 | 23.58778 | 119.85517 | 30974 ft | 511 kts | 29° |
| 2026-04-08 06:27 | 23.64760 | 119.89694 | 30980 ft | 510 kts | 28° |
| 2026-04-08 06:28 | 23.70743 | 119.93834 | 30992 ft | 509 kts | 28° |
| 2026-04-08 06:28 | 23.76741 | 119.97971 | 31006 ft | 511 kts | 28° |
| 2026-04-08 06:29 | 23.82746 | 120.02119 | 31010 ft | 511 kts | 28° |
| 2026-04-08 06:29 | 23.88753 | 120.06276 | 31003 ft | 511 kts | 28° |
| 2026-04-08 06:30 | 23.94749 | 120.10430 | 31022 ft | 511 kts | 28° |
| 2026-04-08 06:30 | 24.00755 | 120.14597 | 31005 ft | 511 kts | 28° |
| 2026-04-08 06:31 | 24.06759 | 120.18767 | 31011 ft | 512 kts | 28° |
| 2026-04-08 06:31 | 24.12770 | 120.22945 | 31003 ft | 510 kts | 28° |
| 2026-04-08 06:32 | 24.15730 | 120.25007 | 30707 ft | 500 kts | 28° |
| 2026-04-08 06:32 | 24.18678 | 120.27059 | 30099 ft | 507 kts | 28° |
| 2026-04-08 06:32 | 24.21682 | 120.29146 | 29465 ft | 515 kts | 28° |
| 2026-04-08 06:32 | 24.24714 | 120.31255 | 29031 ft | 518 kts | 28° |
| 2026-04-08 06:33 | 24.27753 | 120.33375 | 28802 ft | 515 kts | 28° |
| 2026-04-08 06:33 | 24.30759 | 120.35476 | 28652 ft | 511 kts | 28° |
| 2026-04-08 06:33 | 24.33747 | 120.37565 | 28488 ft | 508 kts | 28° |
| 2026-04-08 06:33 | 24.36719 | 120.39643 | 28255 ft | 506 kts | 28° |
| 2026-04-08 06:34 | 24.39645 | 120.41688 | 27995 ft | 504 kts | 28° |
| 2026-04-08 06:34 | 24.42595 | 120.43751 | 27789 ft | 503 kts | 28° |
| 2026-04-08 06:34 | 24.45544 | 120.45814 | 27503 ft | 501 kts | 28° |
| 2026-04-08 06:34 | 24.48481 | 120.47870 | 27237 ft | 500 kts | 28° |
| 2026-04-08 06:35 | 24.51398 | 120.49914 | 26982 ft | 498 kts | 28° |
| 2026-04-08 06:35 | 24.54322 | 120.51964 | 26763 ft | 496 kts | 28° |
| 2026-04-08 06:35 | 24.57217 | 120.53994 | 26497 ft | 494 kts | 28° |
| 2026-04-08 06:35 | 24.60103 | 120.56019 | 25737 ft | 492 kts | 28° |
| 2026-04-08 06:36 | 24.62974 | 120.58036 | 24966 ft | 487 kts | 28° |
| 2026-04-08 06:36 | 24.65827 | 120.60040 | 24195 ft | 483 kts | 28° |
| 2026-04-08 06:36 | 24.68607 | 120.62086 | 23398 ft | 481 kts | 33° |
| 2026-04-08 06:36 | 24.71182 | 120.64428 | 22547 ft | 479 kts | 38° |
| 2026-04-08 06:37 | 24.73614 | 120.66912 | 21791 ft | 474 kts | 40° |
| 2026-04-08 06:37 | 24.75986 | 120.69401 | 21048 ft | 469 kts | 40° |
| 2026-04-08 06:37 | 24.77556 | 120.71028 | 20569 ft | 465 kts | 40° |
| 2026-04-08 06:37 | 24.79914 | 120.73425 | 19855 ft | 460 kts | 39° |
| 2026-04-08 06:38 | 24.82277 | 120.75777 | 19154 ft | 456 kts | 39° |
| 2026-04-08 06:38 | 24.84627 | 120.78090 | 18459 ft | 452 kts | 39° |
| 2026-04-08 06:38 | 24.86966 | 120.80387 | 17701 ft | 448 kts | 39° |
| 2026-04-08 06:38 | 24.89282 | 120.82665 | 17007 ft | 443 kts | 39° |
| 2026-04-08 06:39 | 24.91561 | 120.84913 | 16335 ft | 437 kts | 39° |
| 2026-04-08 06:39 | 24.93728 | 120.87246 | 15705 ft | 433 kts | 45° |
| 2026-04-08 06:39 | 24.95715 | 120.89722 | 15083 ft | 429 kts | 47° |
| 2026-04-08 06:39 | 24.97619 | 120.92230 | 14455 ft | 426 kts | 49° |
| 2026-04-08 06:40 | 24.99506 | 120.94729 | 13839 ft | 422 kts | 48° |
| 2026-04-08 06:40 | 25.01390 | 120.97194 | 13183 ft | 418 kts | 48° |
| 2026-04-08 06:40 | 25.03270 | 120.99618 | 12552 ft | 413 kts | 47° |
| 2026-04-08 06:40 | 25.05138 | 121.02003 | 11937 ft | 409 kts | 47° |
| 2026-04-08 06:41 | 25.06993 | 121.04360 | 11335 ft | 405 kts | 47° |
| 2026-04-08 06:41 | 25.08828 | 121.06687 | 10861 ft | 398 kts | 47° |
| 2026-04-08 06:41 | 25.10611 | 121.08951 | 10692 ft | 384 kts | 47° |
| 2026-04-08 06:41 | 25.12338 | 121.11146 | 10541 ft | 373 kts | 47° |
| 2026-04-08 06:42 | 25.14017 | 121.13277 | 10329 ft | 363 kts | 47° |
| 2026-04-08 06:42 | 25.15644 | 121.15346 | 10191 ft | 350 kts | 47° |
| 2026-04-08 06:42 | 25.17211 | 121.17340 | 10047 ft | 338 kts | 47° |
| 2026-04-08 06:42 | 25.18731 | 121.19275 | 9845 ft | 329 kts | 47° |
| 2026-04-08 06:43 | 25.20205 | 121.21152 | 9648 ft | 320 kts | 47° |
| 2026-04-08 06:43 | 25.21645 | 121.22985 | 9469 ft | 311 kts | 47° |
| 2026-04-08 06:43 | 25.23042 | 121.24762 | 9028 ft | 313 kts | 47° |
| 2026-04-08 06:43 | 25.24492 | 121.26608 | 8636 ft | 312 kts | 47° |
| 2026-04-08 06:44 | 25.25911 | 121.28415 | 8245 ft | 312 kts | 48° |
| 2026-04-08 06:44 | 25.27313 | 121.30202 | 7923 ft | 310 kts | 48° |
| 2026-04-08 06:44 | 25.28717 | 121.31992 | 7617 ft | 307 kts | 48° |
| 2026-04-08 06:44 | 25.30112 | 121.33771 | 7312 ft | 305 kts | 49° |
| 2026-04-08 06:45 | 25.31498 | 121.35538 | 7015 ft | 303 kts | 49° |
| 2026-04-08 06:45 | 25.32876 | 121.37294 | 6703 ft | 302 kts | 49° |
| 2026-04-08 06:45 | 25.34246 | 121.39041 | 6407 ft | 300 kts | 49° |
| 2026-04-08 06:45 | 25.35412 | 121.40891 | 6053 ft | 288 kts | 70° |
| 2026-04-08 06:46 | 25.35637 | 121.42991 | 5767 ft | 267 kts | 103° |
| 2026-04-08 06:46 | 25.34991 | 121.44859 | 5444 ft | 260 kts | 128° |
| 2026-04-08 06:46 | 25.33778 | 121.46278 | 5367 ft | 249 kts | 148° |
| 2026-04-08 06:46 | 25.32302 | 121.47216 | 5308 ft | 243 kts | 162° |
| 2026-04-08 06:47 | 25.30694 | 121.47511 | 5254 ft | 231 kts | 193° |
| 2026-04-08 06:47 | 25.29176 | 121.47059 | 4978 ft | 226 kts | 198° |
| 2026-04-08 06:47 | 25.27635 | 121.46688 | 4749 ft | 227 kts | 199° |
| 2026-04-08 06:47 | 25.26296 | 121.45819 | 4705 ft | 225 kts | 227° |
| 2026-04-08 06:48 | 25.25310 | 121.44498 | 4495 ft | 221 kts | 230° |
| 2026-04-08 06:48 | 25.24318 | 121.43215 | 4328 ft | 217 kts | 229° |
| 2026-04-08 06:48 | 25.23319 | 121.41948 | 4085 ft | 220 kts | 229° |
| 2026-04-08 06:48 | 25.22304 | 121.40660 | 3841 ft | 224 kts | 229° |
| 2026-04-08 06:49 | 25.21279 | 121.39357 | 3524 ft | 224 kts | 229° |
| 2026-04-08 06:49 | 25.20248 | 121.38047 | 3233 ft | 229 kts | 229° |
| 2026-04-08 06:49 | 25.19198 | 121.36711 | 2900 ft | 230 kts | 229° |
| 2026-04-08 06:49 | 25.18166 | 121.35399 | 2616 ft | 221 kts | 229° |
| 2026-04-08 06:50 | 25.17197 | 121.34168 | 2338 ft | 204 kts | 229° |
| 2026-04-08 06:50 | 25.16302 | 121.33032 | 2094 ft | 188 kts | 228° |
| 2026-04-08 06:50 | 25.15485 | 121.31993 | 1869 ft | 170 kts | 227° |
| 2026-04-08 06:50 | 25.14747 | 121.31055 | 1645 ft | 152 kts | 227° |
| 2026-04-08 06:51 | 25.14094 | 121.30227 | 1431 ft | 140 kts | 227° |
| 2026-04-08 06:51 | 25.13455 | 121.29418 | 1288 ft | 139 kts | 227° |
| 2026-04-08 06:51 | 25.12847 | 121.28645 | 1111 ft | 134 kts | 227° |
| 2026-04-08 06:51 | 25.12228 | 121.27860 | 964 ft | 136 kts | 228° |
| 2026-04-08 06:52 | 25.11603 | 121.27065 | 796 ft | 136 kts | 227° |
| 2026-04-08 06:52 | 25.10975 | 121.26276 | 586 ft | 140 kts | 227° |
| 2026-04-08 06:52 | 25.10338 | 121.25478 | 362 ft | 136 kts | 227° |
| 2026-04-08 06:52 | 25.09740 | 121.24704 | 208 ft | 129 kts | 226° |
| 2026-04-08 06:53 | 25.09153 | 121.23962 | 107 ft | 127 kts | 227° |
| 2026-04-08 06:53 | 25.08627 | 121.23306 | 108 ft | 97 kts | 229° |
| 2026-04-08 06:53 | 25.08306 | 121.22890 | 106 ft | 43 kts | 229° |
| 2026-04-08 06:53 | 25.08152 | 121.22734 | 107 ft | 29 kts | 209° |
| 2026-04-08 06:54 | 25.07996 | 121.22666 | 107 ft | 13 kts | 198° |
| 2026-04-08 06:54 | 25.07936 | 121.22644 | 107 ft | 9 kts | 199° |
| 2026-04-08 06:54 | 25.07878 | 121.22622 | 107 ft | 9 kts | 199° |
| 2026-04-08 06:54 | 25.07819 | 121.22617 | 106 ft | 9 kts | 159° |
| 2026-04-08 06:55 | 25.07775 | 121.22662 | 108 ft | 9 kts | 111° |
| 2026-04-08 06:55 | 25.07794 | 121.22724 | 107 ft | 9 kts | 53° |
| 2026-04-08 06:55 | 25.07833 | 121.22776 | 106 ft | 9 kts | 49° |
| 2026-04-08 06:55 | 25.07868 | 121.22822 | 108 ft | 7 kts | 53° |
| 2026-04-08 06:56 | 25.07855 | 121.22870 | 106 ft | 8 kts | 133° |
| 2026-04-08 06:56 | 25.07820 | 121.22906 | 106 ft | 4 kts | 139° |
| 2026-04-08 06:56 | 25.07806 | 121.22919 | 107 ft | 2 kts | 139° |
| 2026-04-08 06:56 | 25.07804 | 121.22920 | 107 ft | 0 kts | 139° |